<?xml version="1.0" encoding="UTF-8" standalone="no" ?>
<gpx xmlns="http://www.topografix.com/GPX/1/1" xmlns:xsi="http://www.w3.org/2001/XMLSchema-instance" xsi:schemaLocation="http://www.topografix.com/GPX/1/1 http://www.topografix.com/GPX/1/1/gpx.xsd" version="1.1" creator="VisuGPX - https://www.visugpx.com">
  <metadata>
    <name>Burregieta - Refugio de las Tres Bocas - Astobiskar</name>
    <desc><![CDATA[Une randonnée au départ de Roncesvalles/Roncevaux/Orreaga  et ayant pour objectif Burretegia et le "refugio de las Tres Bocas ".
On adjoindra à ce parcours un aller-retour à l'Astobiskar, sommet voisin.
Montée par le chemin de Saint jacques, descente par le GR12. 

[url=https://gb-rando.blogspot.com/2025/10/orreaga-burretiega-refugio-tres-bocas.html]voir rando[/url]]]></desc>
  </metadata>
  <trk>
    <name><![CDATA[ASTOBISKAR en traversée depuis RONCEVAUX]]></name>
    <desc><![CDATA[Total: 3.5km]]></desc>
    <trkseg>
      <trkpt lat="43.00895" lon="-1.31875">
        <ele>939.851</ele>
        <time>2025-10-17T06:46:02Z</time>
      </trkpt>
      <trkpt lat="43.00891" lon="-1.31864">
        <ele>937.445</ele>
        <time>2025-10-17T06:46:14Z</time>
      </trkpt>
      <trkpt lat="43.00875" lon="-1.31846">
        <ele>936.086</ele>
        <time>2025-10-17T06:46:29Z</time>
      </trkpt>
      <trkpt lat="43.00863" lon="-1.31829">
        <ele>935.032</ele>
        <time>2025-10-17T06:46:44Z</time>
      </trkpt>
      <trkpt lat="43.00863" lon="-1.31827">
        <ele>935.082</ele>
        <time>2025-10-17T06:46:47Z</time>
      </trkpt>
      <trkpt lat="43.00857" lon="-1.31826">
        <ele>935.543</ele>
        <time>2025-10-17T06:46:53Z</time>
      </trkpt>
      <trkpt lat="43.00855" lon="-1.31823">
        <ele>934.517</ele>
        <time>2025-10-17T06:46:56Z</time>
      </trkpt>
      <trkpt lat="43.00849" lon="-1.31808">
        <ele>935.007</ele>
        <time>2025-10-17T06:47:08Z</time>
      </trkpt>
      <trkpt lat="43.0084" lon="-1.31799">
        <ele>936.086</ele>
        <time>2025-10-17T06:47:21Z</time>
      </trkpt>
      <trkpt lat="43.00834" lon="-1.31795">
        <ele>936.025</ele>
        <time>2025-10-17T06:47:33Z</time>
      </trkpt>
      <trkpt lat="43.00833" lon="-1.31786">
        <ele>937.989</ele>
        <time>2025-10-17T06:47:46Z</time>
      </trkpt>
      <trkpt lat="43.00831" lon="-1.31777">
        <ele>939.437</ele>
        <time>2025-10-17T06:47:59Z</time>
      </trkpt>
      <trkpt lat="43.00822" lon="-1.31767">
        <ele>940.361</ele>
        <time>2025-10-17T06:48:11Z</time>
      </trkpt>
      <trkpt lat="43.00804" lon="-1.31743">
        <ele>941.842</ele>
        <time>2025-10-17T06:48:27Z</time>
      </trkpt>
      <trkpt lat="43.00793" lon="-1.31724">
        <ele>943.268</ele>
        <time>2025-10-17T06:48:42Z</time>
      </trkpt>
      <trkpt lat="43.00779" lon="-1.31698">
        <ele>943.765</ele>
        <time>2025-10-17T06:48:57Z</time>
      </trkpt>
      <trkpt lat="43.00778" lon="-1.31696">
        <ele>943.768</ele>
        <time>2025-10-17T06:48:59Z</time>
      </trkpt>
      <trkpt lat="43.0077" lon="-1.3168">
        <ele>944.614</ele>
        <time>2025-10-17T06:49:13Z</time>
      </trkpt>
      <trkpt lat="43.00772" lon="-1.3167">
        <ele>946.107</ele>
        <time>2025-10-17T06:49:27Z</time>
      </trkpt>
      <trkpt lat="43.00772" lon="-1.31658">
        <ele>947.094</ele>
        <time>2025-10-17T06:49:38Z</time>
      </trkpt>
      <trkpt lat="43.00771" lon="-1.31657">
        <ele>946.633</ele>
        <time>2025-10-17T06:49:39Z</time>
      </trkpt>
      <trkpt lat="43.00764" lon="-1.31642">
        <ele>948.027</ele>
        <time>2025-10-17T06:49:51Z</time>
      </trkpt>
      <trkpt lat="43.00751" lon="-1.31623">
        <ele>949.025</ele>
        <time>2025-10-17T06:50:02Z</time>
      </trkpt>
      <trkpt lat="43.00741" lon="-1.31601">
        <ele>949.429</ele>
        <time>2025-10-17T06:50:09Z</time>
      </trkpt>
      <trkpt lat="43.00732" lon="-1.3158">
        <ele>950.48</ele>
        <time>2025-10-17T06:50:22Z</time>
      </trkpt>
      <trkpt lat="43.0073" lon="-1.31563">
        <ele>950.966</ele>
        <time>2025-10-17T06:50:36Z</time>
      </trkpt>
      <trkpt lat="43.00727" lon="-1.31546">
        <ele>951.418</ele>
        <time>2025-10-17T06:50:49Z</time>
      </trkpt>
      <trkpt lat="43.00722" lon="-1.31527">
        <ele>953.398</ele>
        <time>2025-10-17T06:51:05Z</time>
      </trkpt>
      <trkpt lat="43.00721" lon="-1.31514">
        <ele>954.317</ele>
        <time>2025-10-17T06:51:18Z</time>
      </trkpt>
      <trkpt lat="43.00722" lon="-1.31497">
        <ele>954.307</ele>
        <time>2025-10-17T06:51:32Z</time>
      </trkpt>
      <trkpt lat="43.00719" lon="-1.31473">
        <ele>956.279</ele>
        <time>2025-10-17T06:51:44Z</time>
      </trkpt>
      <trkpt lat="43.00707" lon="-1.31455">
        <ele>957.688</ele>
        <time>2025-10-17T06:51:57Z</time>
      </trkpt>
      <trkpt lat="43.007" lon="-1.31443">
        <ele>958.182</ele>
        <time>2025-10-17T06:52:09Z</time>
      </trkpt>
      <trkpt lat="43.007" lon="-1.31441">
        <ele>959.15</ele>
        <time>2025-10-17T06:52:26Z</time>
      </trkpt>
      <trkpt lat="43.00692" lon="-1.31418">
        <ele>959.584</ele>
        <time>2025-10-17T06:52:42Z</time>
      </trkpt>
      <trkpt lat="43.00686" lon="-1.3139">
        <ele>959.585</ele>
        <time>2025-10-17T06:52:55Z</time>
      </trkpt>
      <trkpt lat="43.00682" lon="-1.31373">
        <ele>961.071</ele>
        <time>2025-10-17T06:53:10Z</time>
      </trkpt>
      <trkpt lat="43.00686" lon="-1.3135">
        <ele>963.445</ele>
        <time>2025-10-17T06:53:25Z</time>
      </trkpt>
      <trkpt lat="43.00686" lon="-1.31333">
        <ele>964.847</ele>
        <time>2025-10-17T06:53:38Z</time>
      </trkpt>
      <trkpt lat="43.00691" lon="-1.31322">
        <ele>967.711</ele>
        <time>2025-10-17T06:53:51Z</time>
      </trkpt>
      <trkpt lat="43.00694" lon="-1.31313">
        <ele>968.707</ele>
        <time>2025-10-17T06:54:02Z</time>
      </trkpt>
      <trkpt lat="43.00705" lon="-1.31304">
        <ele>970.632</ele>
        <time>2025-10-17T06:54:18Z</time>
      </trkpt>
      <trkpt lat="43.00712" lon="-1.31289">
        <ele>973.511</ele>
        <time>2025-10-17T06:54:33Z</time>
      </trkpt>
      <trkpt lat="43.00715" lon="-1.31281">
        <ele>974.035</ele>
        <time>2025-10-17T06:54:42Z</time>
      </trkpt>
      <trkpt lat="43.00719" lon="-1.31271">
        <ele>976.443</ele>
        <time>2025-10-17T06:54:56Z</time>
      </trkpt>
      <trkpt lat="43.00724" lon="-1.31259">
        <ele>978.387</ele>
        <time>2025-10-17T06:55:12Z</time>
      </trkpt>
      <trkpt lat="43.0073" lon="-1.31241">
        <ele>980.778</ele>
        <time>2025-10-17T06:55:29Z</time>
      </trkpt>
      <trkpt lat="43.00735" lon="-1.31233">
        <ele>982.674</ele>
        <time>2025-10-17T06:55:43Z</time>
      </trkpt>
      <trkpt lat="43.00738" lon="-1.31217">
        <ele>985.054</ele>
        <time>2025-10-17T06:55:57Z</time>
      </trkpt>
      <trkpt lat="43.00746" lon="-1.31202">
        <ele>987.456</ele>
        <time>2025-10-17T06:56:11Z</time>
      </trkpt>
      <trkpt lat="43.00751" lon="-1.31186">
        <ele>989.811</ele>
        <time>2025-10-17T06:56:26Z</time>
      </trkpt>
      <trkpt lat="43.00751" lon="-1.31174">
        <ele>990.807</ele>
        <time>2025-10-17T06:56:39Z</time>
      </trkpt>
      <trkpt lat="43.00756" lon="-1.31156">
        <ele>990.883</ele>
        <time>2025-10-17T06:56:54Z</time>
      </trkpt>
      <trkpt lat="43.00759" lon="-1.3114">
        <ele>990.382</ele>
        <time>2025-10-17T06:57:09Z</time>
      </trkpt>
      <trkpt lat="43.00761" lon="-1.31133">
        <ele>990.876</ele>
        <time>2025-10-17T06:57:13Z</time>
      </trkpt>
      <trkpt lat="43.00762" lon="-1.31118">
        <ele>990.844</ele>
        <time>2025-10-17T06:57:21Z</time>
      </trkpt>
      <trkpt lat="43.00766" lon="-1.31103">
        <ele>991.368</ele>
        <time>2025-10-17T06:57:35Z</time>
      </trkpt>
      <trkpt lat="43.00768" lon="-1.31077">
        <ele>991.769</ele>
        <time>2025-10-17T06:57:49Z</time>
      </trkpt>
      <trkpt lat="43.00769" lon="-1.31057">
        <ele>993.255</ele>
        <time>2025-10-17T06:58:02Z</time>
      </trkpt>
      <trkpt lat="43.00769" lon="-1.31051">
        <ele>994.138</ele>
        <time>2025-10-17T06:58:07Z</time>
      </trkpt>
      <trkpt lat="43.00771" lon="-1.31036">
        <ele>995.67</ele>
        <time>2025-10-17T06:58:19Z</time>
      </trkpt>
      <trkpt lat="43.00772" lon="-1.31033">
        <ele>996.117</ele>
        <time>2025-10-17T06:58:21Z</time>
      </trkpt>
      <trkpt lat="43.00775" lon="-1.31019">
        <ele>997.007</ele>
        <time>2025-10-17T06:58:33Z</time>
      </trkpt>
      <trkpt lat="43.00776" lon="-1.31014">
        <ele>997.521</ele>
        <time>2025-10-17T06:58:37Z</time>
      </trkpt>
      <trkpt lat="43.00782" lon="-1.31001">
        <ele>999.03</ele>
        <time>2025-10-17T06:58:49Z</time>
      </trkpt>
      <trkpt lat="43.0079" lon="-1.30993">
        <ele>1001.454</ele>
        <time>2025-10-17T06:59:05Z</time>
      </trkpt>
      <trkpt lat="43.00802" lon="-1.30986">
        <ele>1002.842</ele>
        <time>2025-10-17T06:59:20Z</time>
      </trkpt>
      <trkpt lat="43.00816" lon="-1.30982">
        <ele>1004.736</ele>
        <time>2025-10-17T06:59:35Z</time>
      </trkpt>
      <trkpt lat="43.00826" lon="-1.3098">
        <ele>1006.237</ele>
        <time>2025-10-17T06:59:47Z</time>
      </trkpt>
      <trkpt lat="43.00835" lon="-1.30975">
        <ele>1008.123</ele>
        <time>2025-10-17T06:59:59Z</time>
      </trkpt>
      <trkpt lat="43.00843" lon="-1.30964">
        <ele>1010.542</ele>
        <time>2025-10-17T07:00:13Z</time>
      </trkpt>
      <trkpt lat="43.00853" lon="-1.30947">
        <ele>1012.422</ele>
        <time>2025-10-17T07:00:28Z</time>
      </trkpt>
      <trkpt lat="43.0086" lon="-1.30934">
        <ele>1013.914</ele>
        <time>2025-10-17T07:00:40Z</time>
      </trkpt>
      <trkpt lat="43.00865" lon="-1.30919">
        <ele>1014.807</ele>
        <time>2025-10-17T07:00:53Z</time>
      </trkpt>
      <trkpt lat="43.00872" lon="-1.30902">
        <ele>1016.762</ele>
        <time>2025-10-17T07:01:09Z</time>
      </trkpt>
      <trkpt lat="43.00882" lon="-1.30883">
        <ele>1018.221</ele>
        <time>2025-10-17T07:01:26Z</time>
      </trkpt>
      <trkpt lat="43.00887" lon="-1.30871">
        <ele>1019.655</ele>
        <time>2025-10-17T07:01:40Z</time>
      </trkpt>
      <trkpt lat="43.00892" lon="-1.30857">
        <ele>1021.543</ele>
        <time>2025-10-17T07:01:55Z</time>
      </trkpt>
      <trkpt lat="43.00901" lon="-1.30846">
        <ele>1023.577</ele>
        <time>2025-10-17T07:02:10Z</time>
      </trkpt>
      <trkpt lat="43.0091" lon="-1.30836">
        <ele>1024.938</ele>
        <time>2025-10-17T07:02:25Z</time>
      </trkpt>
      <trkpt lat="43.00915" lon="-1.30842">
        <ele>1026.354</ele>
        <time>2025-10-17T07:02:39Z</time>
      </trkpt>
      <trkpt lat="43.00926" lon="-1.30845">
        <ele>1028.318</ele>
        <time>2025-10-17T07:02:52Z</time>
      </trkpt>
      <trkpt lat="43.00928" lon="-1.30845">
        <ele>1028.898</ele>
        <time>2025-10-17T07:02:57Z</time>
      </trkpt>
      <trkpt lat="43.00931" lon="-1.30846">
        <ele>1029.717</ele>
        <time>2025-10-17T07:03:01Z</time>
      </trkpt>
      <trkpt lat="43.00932" lon="-1.30845">
        <ele>1029.707</ele>
        <time>2025-10-17T07:03:03Z</time>
      </trkpt>
      <trkpt lat="43.00947" lon="-1.30838">
        <ele>1031.669</ele>
        <time>2025-10-17T07:03:18Z</time>
      </trkpt>
      <trkpt lat="43.00959" lon="-1.30832">
        <ele>1033.618</ele>
        <time>2025-10-17T07:03:33Z</time>
      </trkpt>
      <trkpt lat="43.00964" lon="-1.30827">
        <ele>1035.522</ele>
        <time>2025-10-17T07:03:49Z</time>
      </trkpt>
      <trkpt lat="43.00976" lon="-1.30821">
        <ele>1037.96</ele>
        <time>2025-10-17T07:04:07Z</time>
      </trkpt>
      <trkpt lat="43.00989" lon="-1.30806">
        <ele>1039.894</ele>
        <time>2025-10-17T07:04:22Z</time>
      </trkpt>
      <trkpt lat="43.00993" lon="-1.30806">
        <ele>1041.755</ele>
        <time>2025-10-17T07:04:38Z</time>
      </trkpt>
      <trkpt lat="43.01004" lon="-1.30802">
        <ele>1044.651</ele>
        <time>2025-10-17T07:04:52Z</time>
      </trkpt>
      <trkpt lat="43.01008" lon="-1.30801">
        <ele>1046.127</ele>
        <time>2025-10-17T07:05:06Z</time>
      </trkpt>
      <trkpt lat="43.01019" lon="-1.308">
        <ele>1048.968</ele>
        <time>2025-10-17T07:05:21Z</time>
      </trkpt>
      <trkpt lat="43.01024" lon="-1.30799">
        <ele>1050.414</ele>
        <time>2025-10-17T07:05:38Z</time>
      </trkpt>
      <trkpt lat="43.01033" lon="-1.30798">
        <ele>1052.807</ele>
        <time>2025-10-17T07:05:51Z</time>
      </trkpt>
      <trkpt lat="43.01053" lon="-1.30797">
        <ele>1055.74</ele>
        <time>2025-10-17T07:06:05Z</time>
      </trkpt>
      <trkpt lat="43.0106" lon="-1.30797">
        <ele>1058.189</ele>
        <time>2025-10-17T07:06:23Z</time>
      </trkpt>
      <trkpt lat="43.01067" lon="-1.30796">
        <ele>1060.583</ele>
        <time>2025-10-17T07:06:39Z</time>
      </trkpt>
      <trkpt lat="43.0108" lon="-1.30797">
        <ele>1062.981</ele>
        <time>2025-10-17T07:06:56Z</time>
      </trkpt>
      <trkpt lat="43.01092" lon="-1.30797">
        <ele>1064.385</ele>
        <time>2025-10-17T07:07:14Z</time>
      </trkpt>
      <trkpt lat="43.01097" lon="-1.30798">
        <ele>1066.226</ele>
        <time>2025-10-17T07:07:32Z</time>
      </trkpt>
      <trkpt lat="43.01106" lon="-1.30802">
        <ele>1067.732</ele>
        <time>2025-10-17T07:07:47Z</time>
      </trkpt>
      <trkpt lat="43.01117" lon="-1.30807">
        <ele>1069.138</ele>
        <time>2025-10-17T07:08:04Z</time>
      </trkpt>
      <trkpt lat="43.01122" lon="-1.30812">
        <ele>1070.67</ele>
        <time>2025-10-17T07:08:22Z</time>
      </trkpt>
      <trkpt lat="43.01132" lon="-1.30818">
        <ele>1073.017</ele>
        <time>2025-10-17T07:08:41Z</time>
      </trkpt>
      <trkpt lat="43.01149" lon="-1.30839">
        <ele>1075.407</ele>
        <time>2025-10-17T07:08:59Z</time>
      </trkpt>
      <trkpt lat="43.01156" lon="-1.30847">
        <ele>1076.871</ele>
        <time>2025-10-17T07:09:14Z</time>
      </trkpt>
      <trkpt lat="43.01158" lon="-1.30854">
        <ele>1078.37</ele>
        <time>2025-10-17T07:09:22Z</time>
      </trkpt>
      <trkpt lat="43.01167" lon="-1.30867">
        <ele>1079.724</ele>
        <time>2025-10-17T07:09:36Z</time>
      </trkpt>
      <trkpt lat="43.01172" lon="-1.30873">
        <ele>1081.612</ele>
        <time>2025-10-17T07:09:51Z</time>
      </trkpt>
      <trkpt lat="43.01178" lon="-1.3088">
        <ele>1085.086</ele>
        <time>2025-10-17T07:10:09Z</time>
      </trkpt>
      <trkpt lat="43.01184" lon="-1.30887">
        <ele>1086.447</ele>
        <time>2025-10-17T07:10:26Z</time>
      </trkpt>
      <trkpt lat="43.01192" lon="-1.30893">
        <ele>1088.863</ele>
        <time>2025-10-17T07:10:43Z</time>
      </trkpt>
      <trkpt lat="43.01204" lon="-1.30894">
        <ele>1090.827</ele>
        <time>2025-10-17T07:11:00Z</time>
      </trkpt>
      <trkpt lat="43.01206" lon="-1.30895">
        <ele>1092.768</ele>
        <time>2025-10-17T07:11:15Z</time>
      </trkpt>
      <trkpt lat="43.01216" lon="-1.30899">
        <ele>1094.614</ele>
        <time>2025-10-17T07:11:29Z</time>
      </trkpt>
      <trkpt lat="43.01225" lon="-1.30902">
        <ele>1097.007</ele>
        <time>2025-10-17T07:11:46Z</time>
      </trkpt>
      <trkpt lat="43.0123" lon="-1.30903">
        <ele>1098.45</ele>
        <time>2025-10-17T07:12:02Z</time>
      </trkpt>
      <trkpt lat="43.01239" lon="-1.30902">
        <ele>1099.499</ele>
        <time>2025-10-17T07:12:18Z</time>
      </trkpt>
      <trkpt lat="43.01251" lon="-1.30895">
        <ele>1101.383</ele>
        <time>2025-10-17T07:12:35Z</time>
      </trkpt>
      <trkpt lat="43.01261" lon="-1.30887">
        <ele>1102.871</ele>
        <time>2025-10-17T07:12:48Z</time>
      </trkpt>
      <trkpt lat="43.0127" lon="-1.30884">
        <ele>1104.265</ele>
        <time>2025-10-17T07:13:04Z</time>
      </trkpt>
      <trkpt lat="43.01277" lon="-1.30879">
        <ele>1105.786</ele>
        <time>2025-10-17T07:13:19Z</time>
      </trkpt>
      <trkpt lat="43.01286" lon="-1.30875">
        <ele>1108.562</ele>
        <time>2025-10-17T07:13:36Z</time>
      </trkpt>
      <trkpt lat="43.0129" lon="-1.3087">
        <ele>1110.029</ele>
        <time>2025-10-17T07:13:48Z</time>
      </trkpt>
      <trkpt lat="43.01296" lon="-1.30864">
        <ele>1110.9</ele>
        <time>2025-10-17T07:14:03Z</time>
      </trkpt>
      <trkpt lat="43.013" lon="-1.30856">
        <ele>1112.42</ele>
        <time>2025-10-17T07:14:19Z</time>
      </trkpt>
      <trkpt lat="43.01302" lon="-1.30851">
        <ele>1113.807</ele>
        <time>2025-10-17T07:14:33Z</time>
      </trkpt>
      <trkpt lat="43.01304" lon="-1.30846">
        <ele>1114.84</ele>
        <time>2025-10-17T07:14:48Z</time>
      </trkpt>
      <trkpt lat="43.01305" lon="-1.30841">
        <ele>1115.859</ele>
        <time>2025-10-17T07:15:02Z</time>
      </trkpt>
      <trkpt lat="43.01311" lon="-1.3083">
        <ele>1117.263</ele>
        <time>2025-10-17T07:15:17Z</time>
      </trkpt>
      <trkpt lat="43.01311" lon="-1.30829">
        <ele>1117.721</ele>
        <time>2025-10-17T07:15:19Z</time>
      </trkpt>
      <trkpt lat="43.01323" lon="-1.30817">
        <ele>1119.185</ele>
        <time>2025-10-17T07:15:33Z</time>
      </trkpt>
      <trkpt lat="43.01333" lon="-1.30804">
        <ele>1120.686</ele>
        <time>2025-10-17T07:15:50Z</time>
      </trkpt>
      <trkpt lat="43.01365" lon="-1.30777">
        <ele>1122.512</ele>
        <time>2025-10-17T07:16:10Z</time>
      </trkpt>
      <trkpt lat="43.01389" lon="-1.30764">
        <ele>1123.952</ele>
        <time>2025-10-17T07:16:27Z</time>
      </trkpt>
      <trkpt lat="43.01408" lon="-1.30757">
        <ele>1125.453</ele>
        <time>2025-10-17T07:16:46Z</time>
      </trkpt>
      <trkpt lat="43.01421" lon="-1.30749">
        <ele>1126.308</ele>
        <time>2025-10-17T07:17:04Z</time>
      </trkpt>
      <trkpt lat="43.01424" lon="-1.30739">
        <ele>1127.307</ele>
        <time>2025-10-17T07:17:20Z</time>
      </trkpt>
      <trkpt lat="43.01434" lon="-1.30736">
        <ele>1128.253</ele>
        <time>2025-10-17T07:17:37Z</time>
      </trkpt>
      <trkpt lat="43.01444" lon="-1.30728">
        <ele>1130.292</ele>
        <time>2025-10-17T07:17:52Z</time>
      </trkpt>
      <trkpt lat="43.01453" lon="-1.30725">
        <ele>1131.116</ele>
        <time>2025-10-17T07:18:04Z</time>
      </trkpt>
      <trkpt lat="43.01455" lon="-1.30723">
        <ele>1132.144</ele>
        <time>2025-10-17T07:18:14Z</time>
      </trkpt>
      <trkpt lat="43.0147" lon="-1.30714">
        <ele>1133.528</ele>
        <time>2025-10-17T07:18:26Z</time>
      </trkpt>
      <trkpt lat="43.01478" lon="-1.30705">
        <ele>1135.549</ele>
        <time>2025-10-17T07:18:41Z</time>
      </trkpt>
      <trkpt lat="43.01485" lon="-1.30694">
        <ele>1136.475</ele>
        <time>2025-10-17T07:18:56Z</time>
      </trkpt>
      <trkpt lat="43.01489" lon="-1.30686">
        <ele>1137.956</ele>
        <time>2025-10-17T07:19:08Z</time>
      </trkpt>
      <trkpt lat="43.01497" lon="-1.30674">
        <ele>1139.359</ele>
        <time>2025-10-17T07:19:23Z</time>
      </trkpt>
      <trkpt lat="43.01508" lon="-1.3066">
        <ele>1141.214</ele>
        <time>2025-10-17T07:19:37Z</time>
      </trkpt>
      <trkpt lat="43.01514" lon="-1.3065">
        <ele>1141.707</ele>
        <time>2025-10-17T07:19:50Z</time>
      </trkpt>
      <trkpt lat="43.01524" lon="-1.30634">
        <ele>1141.733</ele>
        <time>2025-10-17T07:20:04Z</time>
      </trkpt>
      <trkpt lat="43.01531" lon="-1.3062">
        <ele>1142.772</ele>
        <time>2025-10-17T07:20:18Z</time>
      </trkpt>
      <trkpt lat="43.01538" lon="-1.30606">
        <ele>1142.786</ele>
        <time>2025-10-17T07:20:34Z</time>
      </trkpt>
      <trkpt lat="43.01552" lon="-1.30583">
        <ele>1143.164</ele>
        <time>2025-10-17T07:20:48Z</time>
      </trkpt>
      <trkpt lat="43.01555" lon="-1.30572">
        <ele>1143.678</ele>
        <time>2025-10-17T07:21:00Z</time>
      </trkpt>
      <trkpt lat="43.01565" lon="-1.30559">
        <ele>1142.719</ele>
        <time>2025-10-17T07:21:13Z</time>
      </trkpt>
      <trkpt lat="43.01575" lon="-1.30542">
        <ele>1141.745</ele>
        <time>2025-10-17T07:21:28Z</time>
      </trkpt>
      <trkpt lat="43.01579" lon="-1.30527">
        <ele>1141.718</ele>
        <time>2025-10-17T07:21:41Z</time>
      </trkpt>
      <trkpt lat="43.01586" lon="-1.30508">
        <ele>1139.398</ele>
        <time>2025-10-17T07:21:58Z</time>
      </trkpt>
      <trkpt lat="43.01593" lon="-1.30497">
        <ele>1138.317</ele>
        <time>2025-10-17T07:22:12Z</time>
      </trkpt>
      <trkpt lat="43.01605" lon="-1.30484">
        <ele>1136.407</ele>
        <time>2025-10-17T07:22:27Z</time>
      </trkpt>
      <trkpt lat="43.01611" lon="-1.30474">
        <ele>1135.029</ele>
        <time>2025-10-17T07:22:38Z</time>
      </trkpt>
      <trkpt lat="43.01617" lon="-1.30465">
        <ele>1134.078</ele>
        <time>2025-10-17T07:22:50Z</time>
      </trkpt>
      <trkpt lat="43.0163" lon="-1.30456">
        <ele>1130.772</ele>
        <time>2025-10-17T07:23:05Z</time>
      </trkpt>
      <trkpt lat="43.01631" lon="-1.30456">
        <ele>1130.71</ele>
        <time>2025-10-17T07:23:06Z</time>
      </trkpt>
      <trkpt lat="43.01639" lon="-1.30444">
        <ele>1128.764</ele>
        <time>2025-10-17T07:23:22Z</time>
      </trkpt>
      <trkpt lat="43.01643" lon="-1.30434">
        <ele>1126.845</ele>
        <time>2025-10-17T07:23:35Z</time>
      </trkpt>
      <trkpt lat="43.01646" lon="-1.30427">
        <ele>1125.491</ele>
        <time>2025-10-17T07:23:48Z</time>
      </trkpt>
      <trkpt lat="43.01652" lon="-1.3041">
        <ele>1124.433</ele>
        <time>2025-10-17T07:24:03Z</time>
      </trkpt>
      <trkpt lat="43.01661" lon="-1.30392">
        <ele>1123.023</ele>
        <time>2025-10-17T07:24:16Z</time>
      </trkpt>
      <trkpt lat="43.01667" lon="-1.30374">
        <ele>1122.015</ele>
        <time>2025-10-17T07:24:30Z</time>
      </trkpt>
      <trkpt lat="43.0167" lon="-1.30365">
        <ele>1122.007</ele>
        <time>2025-10-17T07:24:44Z</time>
      </trkpt>
      <trkpt lat="43.01674" lon="-1.3035">
        <ele>1122.511</ele>
        <time>2025-10-17T07:25:00Z</time>
      </trkpt>
      <trkpt lat="43.01679" lon="-1.30329">
        <ele>1123.48</ele>
        <time>2025-10-17T07:25:13Z</time>
      </trkpt>
      <trkpt lat="43.01686" lon="-1.30304">
        <ele>1123.414</ele>
        <time>2025-10-17T07:25:28Z</time>
      </trkpt>
      <trkpt lat="43.01689" lon="-1.30287">
        <ele>1124.432</ele>
        <time>2025-10-17T07:25:43Z</time>
      </trkpt>
      <trkpt lat="43.01693" lon="-1.30276">
        <ele>1124.956</ele>
        <time>2025-10-17T07:25:54Z</time>
      </trkpt>
      <trkpt lat="43.01698" lon="-1.30261">
        <ele>1126.337</ele>
        <time>2025-10-17T07:26:09Z</time>
      </trkpt>
      <trkpt lat="43.01702" lon="-1.30247">
        <ele>1128.243</ele>
        <time>2025-10-17T07:26:24Z</time>
      </trkpt>
      <trkpt lat="43.01706" lon="-1.30239">
        <ele>1130.244</ele>
        <time>2025-10-17T07:26:37Z</time>
      </trkpt>
      <trkpt lat="43.01717" lon="-1.30226">
        <ele>1131.605</ele>
        <time>2025-10-17T07:26:53Z</time>
      </trkpt>
      <trkpt lat="43.01722" lon="-1.3022">
        <ele>1133.115</ele>
        <time>2025-10-17T07:27:06Z</time>
      </trkpt>
      <trkpt lat="43.01725" lon="-1.30218">
        <ele>1135.007</ele>
        <time>2025-10-17T07:27:20Z</time>
      </trkpt>
      <trkpt lat="43.01729" lon="-1.30216">
        <ele>1137.482</ele>
        <time>2025-10-17T07:27:36Z</time>
      </trkpt>
      <trkpt lat="43.01734" lon="-1.30211">
        <ele>1139.351</ele>
        <time>2025-10-17T07:27:50Z</time>
      </trkpt>
      <trkpt lat="43.01736" lon="-1.30213">
        <ele>1141.735</ele>
        <time>2025-10-17T07:28:06Z</time>
      </trkpt>
      <trkpt lat="43.01739" lon="-1.30213">
        <ele>1143.683</ele>
        <time>2025-10-17T07:28:21Z</time>
      </trkpt>
      <trkpt lat="43.01743" lon="-1.30214">
        <ele>1145.177</ele>
        <time>2025-10-17T07:28:36Z</time>
      </trkpt>
      <trkpt lat="43.01744" lon="-1.30214">
        <ele>1146.558</ele>
        <time>2025-10-17T07:28:52Z</time>
      </trkpt>
      <trkpt lat="43.01749" lon="-1.30215">
        <ele>1148.974</ele>
        <time>2025-10-17T07:29:10Z</time>
      </trkpt>
      <trkpt lat="43.01752" lon="-1.30214">
        <ele>1150.424</ele>
        <time>2025-10-17T07:29:22Z</time>
      </trkpt>
      <trkpt lat="43.01759" lon="-1.3021">
        <ele>1150.804</ele>
        <time>2025-10-17T07:29:36Z</time>
      </trkpt>
      <trkpt lat="43.01765" lon="-1.30207">
        <ele>1151.314</ele>
        <time>2025-10-17T07:29:48Z</time>
      </trkpt>
      <trkpt lat="43.01777" lon="-1.30203">
        <ele>1152.307</ele>
        <time>2025-10-17T07:30:02Z</time>
      </trkpt>
      <trkpt lat="43.01784" lon="-1.30195">
        <ele>1154.28</ele>
        <time>2025-10-17T07:30:16Z</time>
      </trkpt>
      <trkpt lat="43.01794" lon="-1.30183">
        <ele>1155.269</ele>
        <time>2025-10-17T07:30:31Z</time>
      </trkpt>
      <trkpt lat="43.01798" lon="-1.30169">
        <ele>1156.643</ele>
        <time>2025-10-17T07:30:46Z</time>
      </trkpt>
      <trkpt lat="43.018" lon="-1.30152">
        <ele>1158.111</ele>
        <time>2025-10-17T07:30:58Z</time>
      </trkpt>
      <trkpt lat="43.01802" lon="-1.30132">
        <ele>1159.065</ele>
        <time>2025-10-17T07:31:13Z</time>
      </trkpt>
      <trkpt lat="43.01807" lon="-1.30116">
        <ele>1160.936</ele>
        <time>2025-10-17T07:31:25Z</time>
      </trkpt>
      <trkpt lat="43.01809" lon="-1.30104">
        <ele>1162.932</ele>
        <time>2025-10-17T07:31:37Z</time>
      </trkpt>
      <trkpt lat="43.01812" lon="-1.30096">
        <ele>1164.311</ele>
        <time>2025-10-17T07:31:51Z</time>
      </trkpt>
      <trkpt lat="43.01814" lon="-1.3008">
        <ele>1165.721</ele>
        <time>2025-10-17T07:32:04Z</time>
      </trkpt>
      <trkpt lat="43.01818" lon="-1.3007">
        <ele>1166.703</ele>
        <time>2025-10-17T07:32:14Z</time>
      </trkpt>
      <trkpt lat="43.0182" lon="-1.30061">
        <ele>1168.607</ele>
        <time>2025-10-17T07:32:27Z</time>
      </trkpt>
      <trkpt lat="43.01825" lon="-1.30054">
        <ele>1169.689</ele>
        <time>2025-10-17T07:32:39Z</time>
      </trkpt>
      <trkpt lat="43.01827" lon="-1.30048">
        <ele>1171.588</ele>
        <time>2025-10-17T07:32:53Z</time>
      </trkpt>
      <trkpt lat="43.01828" lon="-1.3004">
        <ele>1173.472</ele>
        <time>2025-10-17T07:33:08Z</time>
      </trkpt>
      <trkpt lat="43.01829" lon="-1.30029">
        <ele>1174.97</ele>
        <time>2025-10-17T07:33:24Z</time>
      </trkpt>
      <trkpt lat="43.01831" lon="-1.3002">
        <ele>1177.344</ele>
        <time>2025-10-17T07:33:41Z</time>
      </trkpt>
      <trkpt lat="43.01833" lon="-1.30013">
        <ele>1179.765</ele>
        <time>2025-10-17T07:33:56Z</time>
      </trkpt>
      <trkpt lat="43.01836" lon="-1.29998">
        <ele>1180.661</ele>
        <time>2025-10-17T07:34:08Z</time>
      </trkpt>
      <trkpt lat="43.01845" lon="-1.29978">
        <ele>1182.188</ele>
        <time>2025-10-17T07:34:21Z</time>
      </trkpt>
      <trkpt lat="43.01848" lon="-1.29971">
        <ele>1185.024</ele>
        <time>2025-10-17T07:34:36Z</time>
      </trkpt>
      <trkpt lat="43.01853" lon="-1.29965">
        <ele>1187.426</ele>
        <time>2025-10-17T07:34:51Z</time>
      </trkpt>
      <trkpt lat="43.01861" lon="-1.29955">
        <ele>1188.307</ele>
        <time>2025-10-17T07:35:03Z</time>
      </trkpt>
      <trkpt lat="43.01868" lon="-1.29952">
        <ele>1189.336</ele>
        <time>2025-10-17T07:35:10Z</time>
      </trkpt>
      <trkpt lat="43.01876" lon="-1.29948">
        <ele>1190.745</ele>
        <time>2025-10-17T07:35:23Z</time>
      </trkpt>
      <trkpt lat="43.0188" lon="-1.29945">
        <ele>1192.249</ele>
        <time>2025-10-17T07:35:34Z</time>
      </trkpt>
      <trkpt lat="43.01882" lon="-1.29945">
        <ele>1192.777</ele>
        <time>2025-10-17T07:35:46Z</time>
      </trkpt>
      <trkpt lat="43.01885" lon="-1.29944">
        <ele>1194.141</ele>
        <time>2025-10-17T07:36:02Z</time>
      </trkpt>
      <trkpt lat="43.01891" lon="-1.29943">
        <ele>1195.552</ele>
        <time>2025-10-17T07:36:15Z</time>
      </trkpt>
      <trkpt lat="43.01903" lon="-1.29942">
        <ele>1198.418</ele>
        <time>2025-10-17T07:36:32Z</time>
      </trkpt>
      <trkpt lat="43.01912" lon="-1.29942">
        <ele>1199.985</ele>
        <time>2025-10-17T07:36:46Z</time>
      </trkpt>
      <trkpt lat="43.01917" lon="-1.29942">
        <ele>1201.889</ele>
        <time>2025-10-17T07:37:00Z</time>
      </trkpt>
      <trkpt lat="43.01924" lon="-1.2994">
        <ele>1203.217</ele>
        <time>2025-10-17T07:37:12Z</time>
      </trkpt>
      <trkpt lat="43.01928" lon="-1.29939">
        <ele>1203.707</ele>
        <time>2025-10-17T07:37:25Z</time>
      </trkpt>
      <trkpt lat="43.01936" lon="-1.29935">
        <ele>1205.656</ele>
        <time>2025-10-17T07:37:40Z</time>
      </trkpt>
      <trkpt lat="43.01939" lon="-1.29932">
        <ele>1207.165</ele>
        <time>2025-10-17T07:37:51Z</time>
      </trkpt>
      <trkpt lat="43.01944" lon="-1.2993">
        <ele>1208.549</ele>
        <time>2025-10-17T07:38:01Z</time>
      </trkpt>
      <trkpt lat="43.0196" lon="-1.29922">
        <ele>1209.587</ele>
        <time>2025-10-17T07:38:16Z</time>
      </trkpt>
      <trkpt lat="43.01963" lon="-1.29918">
        <ele>1210.451</ele>
        <time>2025-10-17T07:38:25Z</time>
      </trkpt>
      <trkpt lat="43.01969" lon="-1.29913">
        <ele>1211.422</ele>
        <time>2025-10-17T07:38:37Z</time>
      </trkpt>
      <trkpt lat="43.01973" lon="-1.2991">
        <ele>1211.958</ele>
        <time>2025-10-17T07:38:48Z</time>
      </trkpt>
      <trkpt lat="43.01982" lon="-1.29905">
        <ele>1213.332</ele>
        <time>2025-10-17T07:38:59Z</time>
      </trkpt>
      <trkpt lat="43.01986" lon="-1.29902">
        <ele>1213.892</ele>
        <time>2025-10-17T07:39:10Z</time>
      </trkpt>
      <trkpt lat="43.01997" lon="-1.29893">
        <ele>1214.811</ele>
        <time>2025-10-17T07:39:20Z</time>
      </trkpt>
      <trkpt lat="43.02006" lon="-1.29883">
        <ele>1216.207</ele>
        <time>2025-10-17T07:39:31Z</time>
      </trkpt>
      <trkpt lat="43.0201" lon="-1.29878">
        <ele>1217.711</ele>
        <time>2025-10-17T07:39:42Z</time>
      </trkpt>
      <trkpt lat="43.02013" lon="-1.29875">
        <ele>1219.11</ele>
        <time>2025-10-17T07:39:55Z</time>
      </trkpt>
      <trkpt lat="43.02015" lon="-1.29873">
        <ele>1221.084</ele>
        <time>2025-10-17T07:40:06Z</time>
      </trkpt>
      <trkpt lat="43.02017" lon="-1.29873">
        <ele>1222.972</ele>
        <time>2025-10-17T07:40:18Z</time>
      </trkpt>
      <trkpt lat="43.02019" lon="-1.29876">
        <ele>1225.316</ele>
        <time>2025-10-17T07:40:32Z</time>
      </trkpt>
      <trkpt lat="43.02023" lon="-1.29882">
        <ele>1225.837</ele>
        <time>2025-10-17T07:40:43Z</time>
      </trkpt>
      <trkpt lat="43.02025" lon="-1.29892">
        <ele>1227.793</ele>
        <time>2025-10-17T07:40:56Z</time>
      </trkpt>
      <trkpt lat="43.02025" lon="-1.299">
        <ele>1228.788</ele>
        <time>2025-10-17T07:41:08Z</time>
      </trkpt>
      <trkpt lat="43.02024" lon="-1.29908">
        <ele>1229.724</ele>
        <time>2025-10-17T07:41:18Z</time>
      </trkpt>
      <trkpt lat="43.02022" lon="-1.29913">
        <ele>1231.126</ele>
        <time>2025-10-17T07:41:31Z</time>
      </trkpt>
      <trkpt lat="43.02018" lon="-1.29922">
        <ele>1232.107</ele>
        <time>2025-10-17T07:41:44Z</time>
      </trkpt>
      <trkpt lat="43.02018" lon="-1.29923">
        <ele>1232.146</ele>
        <time>2025-10-17T07:41:48Z</time>
      </trkpt>
      <trkpt lat="43.02017" lon="-1.29933">
        <ele>1234.545</ele>
        <time>2025-10-17T07:42:02Z</time>
      </trkpt>
      <trkpt lat="43.02013" lon="-1.2995">
        <ele>1235.489</ele>
        <time>2025-10-17T07:42:17Z</time>
      </trkpt>
      <trkpt lat="43.02009" lon="-1.29966">
        <ele>1236.447</ele>
        <time>2025-10-17T07:42:32Z</time>
      </trkpt>
      <trkpt lat="43.02009" lon="-1.29977">
        <ele>1238.371</ele>
        <time>2025-10-17T07:42:43Z</time>
      </trkpt>
      <trkpt lat="43.02006" lon="-1.29985">
        <ele>1239.852</ele>
        <time>2025-10-17T07:42:58Z</time>
      </trkpt>
      <trkpt lat="43.02007" lon="-1.29995">
        <ele>1241.258</ele>
        <time>2025-10-17T07:43:13Z</time>
      </trkpt>
      <trkpt lat="43.02016" lon="-1.30001">
        <ele>1242.644</ele>
        <time>2025-10-17T07:43:24Z</time>
      </trkpt>
      <trkpt lat="43.02022" lon="-1.30007">
        <ele>1243.605</ele>
        <time>2025-10-17T07:43:36Z</time>
      </trkpt>
      <trkpt lat="43.02022" lon="-1.30008">
        <ele>1243.615</ele>
        <time>2025-10-17T07:43:39Z</time>
      </trkpt>
      <trkpt lat="43.02032" lon="-1.30011">
        <ele>1244.107</ele>
        <time>2025-10-17T07:43:52Z</time>
      </trkpt>
      <trkpt lat="43.02046" lon="-1.30012">
        <ele>1245.012</ele>
        <time>2025-10-17T07:43:59Z</time>
      </trkpt>
      <trkpt lat="43.02056" lon="-1.30009">
        <ele>1246.081</ele>
        <time>2025-10-17T07:44:10Z</time>
      </trkpt>
      <trkpt lat="43.02063" lon="-1.30005">
        <ele>1247.055</ele>
        <time>2025-10-17T07:44:23Z</time>
      </trkpt>
      <trkpt lat="43.02071" lon="-1.29996">
        <ele>1247.513</ele>
        <time>2025-10-17T07:44:36Z</time>
      </trkpt>
      <trkpt lat="43.02077" lon="-1.29988">
        <ele>1248.477</ele>
        <time>2025-10-17T07:44:46Z</time>
      </trkpt>
      <trkpt lat="43.02087" lon="-1.29983">
        <ele>1248.968</ele>
        <time>2025-10-17T07:44:56Z</time>
      </trkpt>
      <trkpt lat="43.02097" lon="-1.29965">
        <ele>1249.914</ele>
        <time>2025-10-17T07:45:08Z</time>
      </trkpt>
      <trkpt lat="43.02103" lon="-1.29948">
        <ele>1250.815</ele>
        <time>2025-10-17T07:45:23Z</time>
      </trkpt>
      <trkpt lat="43.02105" lon="-1.29943">
        <ele>1251.865</ele>
        <time>2025-10-17T07:45:28Z</time>
      </trkpt>
      <trkpt lat="43.02107" lon="-1.29933">
        <ele>1252.311</ele>
        <time>2025-10-17T07:45:37Z</time>
      </trkpt>
      <trkpt lat="43.02112" lon="-1.29922">
        <ele>1252.707</ele>
        <time>2025-10-17T07:45:48Z</time>
      </trkpt>
      <trkpt lat="43.0212" lon="-1.29913">
        <ele>1253.719</ele>
        <time>2025-10-17T07:46:01Z</time>
      </trkpt>
      <trkpt lat="43.02123" lon="-1.2991">
        <ele>1255.138</ele>
        <time>2025-10-17T07:46:13Z</time>
      </trkpt>
      <trkpt lat="43.02123" lon="-1.2991">
        <ele>1256.142</ele>
        <time>2025-10-17T07:46:16Z</time>
      </trkpt>
      <trkpt lat="43.02132" lon="-1.29902">
        <ele>1256.66</ele>
        <time>2025-10-17T07:46:28Z</time>
      </trkpt>
      <trkpt lat="43.02137" lon="-1.29896">
        <ele>1257.514</ele>
        <time>2025-10-17T07:46:39Z</time>
      </trkpt>
      <trkpt lat="43.02144" lon="-1.29889">
        <ele>1258.535</ele>
        <time>2025-10-17T07:46:53Z</time>
      </trkpt>
      <trkpt lat="43.02145" lon="-1.29889">
        <ele>1259.011</ele>
        <time>2025-10-17T07:46:54Z</time>
      </trkpt>
      <trkpt lat="43.02152" lon="-1.29882">
        <ele>1259.951</ele>
        <time>2025-10-17T07:47:05Z</time>
      </trkpt>
      <trkpt lat="43.02157" lon="-1.29872">
        <ele>1260.901</ele>
        <time>2025-10-17T07:47:15Z</time>
      </trkpt>
      <trkpt lat="43.02164" lon="-1.29863">
        <ele>1263.311</ele>
        <time>2025-10-17T07:47:29Z</time>
      </trkpt>
      <trkpt lat="43.02168" lon="-1.29855">
        <ele>1265.207</ele>
        <time>2025-10-17T07:47:42Z</time>
      </trkpt>
      <trkpt lat="43.02171" lon="-1.29849">
        <ele>1266.783</ele>
        <time>2025-10-17T07:47:57Z</time>
      </trkpt>
      <trkpt lat="43.02173" lon="-1.29847">
        <ele>1268.182</ele>
        <time>2025-10-17T07:48:07Z</time>
      </trkpt>
      <trkpt lat="43.02179" lon="-1.29842">
        <ele>1270.076</ele>
        <time>2025-10-17T07:48:17Z</time>
      </trkpt>
      <trkpt lat="43.02184" lon="-1.29839">
        <ele>1271.034</ele>
        <time>2025-10-17T07:48:29Z</time>
      </trkpt>
      <trkpt lat="43.02186" lon="-1.29841">
        <ele>1272.088</ele>
        <time>2025-10-17T07:48:39Z</time>
      </trkpt>
      <trkpt lat="43.02188" lon="-1.29842">
        <ele>1273.939</ele>
        <time>2025-10-17T07:48:51Z</time>
      </trkpt>
      <trkpt lat="43.0219" lon="-1.29844">
        <ele>1275.835</ele>
        <time>2025-10-17T07:49:03Z</time>
      </trkpt>
      <trkpt lat="43.02195" lon="-1.29844">
        <ele>1276.846</ele>
        <time>2025-10-17T07:49:14Z</time>
      </trkpt>
      <trkpt lat="43.02205" lon="-1.29844">
        <ele>1278.288</ele>
        <time>2025-10-17T07:49:25Z</time>
      </trkpt>
      <trkpt lat="43.02209" lon="-1.29844">
        <ele>1279.216</ele>
        <time>2025-10-17T07:49:34Z</time>
      </trkpt>
      <trkpt lat="43.02212" lon="-1.29844">
        <ele>1281.107</ele>
        <time>2025-10-17T07:49:46Z</time>
      </trkpt>
      <trkpt lat="43.02216" lon="-1.29844">
        <ele>1283.012</ele>
        <time>2025-10-17T07:49:57Z</time>
      </trkpt>
      <trkpt lat="43.02218" lon="-1.29845">
        <ele>1284.071</ele>
        <time>2025-10-17T07:50:08Z</time>
      </trkpt>
      <trkpt lat="43.02226" lon="-1.29847">
        <ele>1284.965</ele>
        <time>2025-10-17T07:50:21Z</time>
      </trkpt>
      <trkpt lat="43.02226" lon="-1.29846">
        <ele>1284.923</ele>
        <time>2025-10-17T07:50:22Z</time>
      </trkpt>
      <trkpt lat="43.02234" lon="-1.29844">
        <ele>1287.337</ele>
        <time>2025-10-17T07:50:33Z</time>
      </trkpt>
      <trkpt lat="43.0224" lon="-1.29844">
        <ele>1288.898</ele>
        <time>2025-10-17T07:50:47Z</time>
      </trkpt>
      <trkpt lat="43.02245" lon="-1.29845">
        <ele>1289.844</ele>
        <time>2025-10-17T07:50:57Z</time>
      </trkpt>
      <trkpt lat="43.02251" lon="-1.29842">
        <ele>1290.256</ele>
        <time>2025-10-17T07:51:08Z</time>
      </trkpt>
      <trkpt lat="43.02254" lon="-1.2984">
        <ele>1292.259</ele>
        <time>2025-10-17T07:51:20Z</time>
      </trkpt>
      <trkpt lat="43.02258" lon="-1.29838">
        <ele>1293.614</ele>
        <time>2025-10-17T07:51:32Z</time>
      </trkpt>
      <trkpt lat="43.02262" lon="-1.29837">
        <ele>1295.507</ele>
        <time>2025-10-17T07:51:46Z</time>
      </trkpt>
      <trkpt lat="43.02267" lon="-1.29836">
        <ele>1297.063</ele>
        <time>2025-10-17T07:51:57Z</time>
      </trkpt>
      <trkpt lat="43.02273" lon="-1.29834">
        <ele>1298.922</ele>
        <time>2025-10-17T07:52:10Z</time>
      </trkpt>
      <trkpt lat="43.02279" lon="-1.29835">
        <ele>1299.476</ele>
        <time>2025-10-17T07:52:23Z</time>
      </trkpt>
      <trkpt lat="43.02283" lon="-1.29833">
        <ele>1300.894</ele>
        <time>2025-10-17T07:52:35Z</time>
      </trkpt>
      <trkpt lat="43.02288" lon="-1.29831">
        <ele>1302.268</ele>
        <time>2025-10-17T07:52:47Z</time>
      </trkpt>
      <trkpt lat="43.02291" lon="-1.2983">
        <ele>1303.739</ele>
        <time>2025-10-17T07:53:00Z</time>
      </trkpt>
      <trkpt lat="43.02293" lon="-1.2983">
        <ele>1306.135</ele>
        <time>2025-10-17T07:53:12Z</time>
      </trkpt>
      <trkpt lat="43.02296" lon="-1.29829">
        <ele>1308.037</ele>
        <time>2025-10-17T07:53:27Z</time>
      </trkpt>
      <trkpt lat="43.02303" lon="-1.29826">
        <ele>1309.549</ele>
        <time>2025-10-17T07:53:39Z</time>
      </trkpt>
      <trkpt lat="43.02307" lon="-1.29823">
        <ele>1311.413</ele>
        <time>2025-10-17T07:53:51Z</time>
      </trkpt>
      <trkpt lat="43.02309" lon="-1.29823">
        <ele>1312.307</ele>
        <time>2025-10-17T07:54:05Z</time>
      </trkpt>
      <trkpt lat="43.02312" lon="-1.29822">
        <ele>1314.351</ele>
        <time>2025-10-17T07:54:18Z</time>
      </trkpt>
      <trkpt lat="43.02314" lon="-1.29822">
        <ele>1315.21</ele>
        <time>2025-10-17T07:54:28Z</time>
      </trkpt>
      <trkpt lat="43.02316" lon="-1.29821">
        <ele>1316.764</ele>
        <time>2025-10-17T07:54:40Z</time>
      </trkpt>
      <trkpt lat="43.02323" lon="-1.29819">
        <ele>1318.152</ele>
        <time>2025-10-17T07:54:54Z</time>
      </trkpt>
      <trkpt lat="43.02324" lon="-1.29819">
        <ele>1319.146</ele>
        <time>2025-10-17T07:55:08Z</time>
      </trkpt>
      <trkpt lat="43.02326" lon="-1.29818">
        <ele>1320.557</ele>
        <time>2025-10-17T07:55:21Z</time>
      </trkpt>
      <trkpt lat="43.02328" lon="-1.29816">
        <ele>1322.453</ele>
        <time>2025-10-17T07:55:33Z</time>
      </trkpt>
      <trkpt lat="43.0233" lon="-1.29815">
        <ele>1323.954</ele>
        <time>2025-10-17T07:55:46Z</time>
      </trkpt>
      <trkpt lat="43.02332" lon="-1.29814">
        <ele>1324.856</ele>
        <time>2025-10-17T07:55:58Z</time>
      </trkpt>
      <trkpt lat="43.02333" lon="-1.29813">
        <ele>1326.311</ele>
        <time>2025-10-17T07:56:04Z</time>
      </trkpt>
      <trkpt lat="43.02336" lon="-1.29811">
        <ele>1326.807</ele>
        <time>2025-10-17T07:56:13Z</time>
      </trkpt>
      <trkpt lat="43.0234" lon="-1.29808">
        <ele>1328.273</ele>
        <time>2025-10-17T07:56:27Z</time>
      </trkpt>
      <trkpt lat="43.02342" lon="-1.29807">
        <ele>1329.652</ele>
        <time>2025-10-17T07:56:40Z</time>
      </trkpt>
      <trkpt lat="43.02344" lon="-1.29806">
        <ele>1331.156</ele>
        <time>2025-10-17T07:56:52Z</time>
      </trkpt>
      <trkpt lat="43.02347" lon="-1.29804">
        <ele>1332.054</ele>
        <time>2025-10-17T07:57:02Z</time>
      </trkpt>
      <trkpt lat="43.02351" lon="-1.29802">
        <ele>1333.048</ele>
        <time>2025-10-17T07:57:11Z</time>
      </trkpt>
      <trkpt lat="43.02356" lon="-1.29797">
        <ele>1334.949</ele>
        <time>2025-10-17T07:57:23Z</time>
      </trkpt>
      <trkpt lat="43.0236" lon="-1.29796">
        <ele>1336.935</ele>
        <time>2025-10-17T07:57:38Z</time>
      </trkpt>
      <trkpt lat="43.02365" lon="-1.29794">
        <ele>1337.839</ele>
        <time>2025-10-17T07:57:52Z</time>
      </trkpt>
      <trkpt lat="43.02369" lon="-1.29791">
        <ele>1339.301</ele>
        <time>2025-10-17T07:58:06Z</time>
      </trkpt>
      <trkpt lat="43.02372" lon="-1.29789">
        <ele>1340.721</ele>
        <time>2025-10-17T07:58:18Z</time>
      </trkpt>
      <trkpt lat="43.02377" lon="-1.29785">
        <ele>1341.707</ele>
        <time>2025-10-17T07:58:29Z</time>
      </trkpt>
      <trkpt lat="43.02381" lon="-1.29783">
        <ele>1342.171</ele>
        <time>2025-10-17T07:58:40Z</time>
      </trkpt>
      <trkpt lat="43.02387" lon="-1.29781">
        <ele>1344.57</ele>
        <time>2025-10-17T07:58:53Z</time>
      </trkpt>
      <trkpt lat="43.02393" lon="-1.29778">
        <ele>1345.554</ele>
        <time>2025-10-17T07:59:03Z</time>
      </trkpt>
      <trkpt lat="43.02399" lon="-1.29773">
        <ele>1346.952</ele>
        <time>2025-10-17T07:59:15Z</time>
      </trkpt>
      <trkpt lat="43.02403" lon="-1.29772">
        <ele>1348.476</ele>
        <time>2025-10-17T07:59:26Z</time>
      </trkpt>
      <trkpt lat="43.02406" lon="-1.2977">
        <ele>1349.497</ele>
        <time>2025-10-17T07:59:41Z</time>
      </trkpt>
      <trkpt lat="43.02414" lon="-1.29765">
        <ele>1351.353</ele>
        <time>2025-10-17T07:59:55Z</time>
      </trkpt>
      <trkpt lat="43.0242" lon="-1.29761">
        <ele>1352.744</ele>
        <time>2025-10-17T08:00:10Z</time>
      </trkpt>
      <trkpt lat="43.02426" lon="-1.29758">
        <ele>1354.205</ele>
        <time>2025-10-17T08:00:20Z</time>
      </trkpt>
      <trkpt lat="43.02431" lon="-1.29755">
        <ele>1355.115</ele>
        <time>2025-10-17T08:00:33Z</time>
      </trkpt>
      <trkpt lat="43.02443" lon="-1.29752">
        <ele>1356.107</ele>
        <time>2025-10-17T08:00:48Z</time>
      </trkpt>
      <trkpt lat="43.02449" lon="-1.29747">
        <ele>1358.032</ele>
        <time>2025-10-17T08:01:03Z</time>
      </trkpt>
      <trkpt lat="43.02454" lon="-1.29743">
        <ele>1359.461</ele>
        <time>2025-10-17T08:01:14Z</time>
      </trkpt>
      <trkpt lat="43.02463" lon="-1.29737">
        <ele>1360.955</ele>
        <time>2025-10-17T08:01:26Z</time>
      </trkpt>
      <trkpt lat="43.02468" lon="-1.29733">
        <ele>1361.833</ele>
        <time>2025-10-17T08:01:38Z</time>
      </trkpt>
      <trkpt lat="43.02472" lon="-1.29729">
        <ele>1362.827</ele>
        <time>2025-10-17T08:01:52Z</time>
      </trkpt>
      <trkpt lat="43.02475" lon="-1.29726">
        <ele>1365.238</ele>
        <time>2025-10-17T08:02:05Z</time>
      </trkpt>
      <trkpt lat="43.02477" lon="-1.29724">
        <ele>1366.764</ele>
        <time>2025-10-17T08:02:20Z</time>
      </trkpt>
      <trkpt lat="43.02482" lon="-1.2972">
        <ele>1368.151</ele>
        <time>2025-10-17T08:02:33Z</time>
      </trkpt>
      <trkpt lat="43.02492" lon="-1.29715">
        <ele>1369.501</ele>
        <time>2025-10-17T08:02:45Z</time>
      </trkpt>
      <trkpt lat="43.02441" lon="-1.29755">
        <ele>1399.05</ele>
        <time>2025-10-17T08:33:40Z</time>
      </trkpt>
      <trkpt lat="43.02448" lon="-1.29747">
        <ele>1401.02</ele>
        <time>2025-10-17T08:33:59Z</time>
      </trkpt>
      <trkpt lat="43.02456" lon="-1.2974">
        <ele>1402.11</ele>
        <time>2025-10-17T08:34:20Z</time>
      </trkpt>
      <trkpt lat="43.0246" lon="-1.29735">
        <ele>1403.47</ele>
        <time>2025-10-17T08:34:39Z</time>
      </trkpt>
      <trkpt lat="43.0247" lon="-1.29728">
        <ele>1405.69</ele>
        <time>2025-10-17T08:35:03Z</time>
      </trkpt>
      <trkpt lat="43.02472" lon="-1.29726">
        <ele>1406.65</ele>
        <time>2025-10-17T08:35:29Z</time>
      </trkpt>
      <trkpt lat="43.02472" lon="-1.29726">
        <ele>1406.28</ele>
        <time>2025-10-17T08:35:35Z</time>
      </trkpt>
      <trkpt lat="43.02478" lon="-1.29718">
        <ele>1408.27</ele>
        <time>2025-10-17T08:35:57Z</time>
      </trkpt>
      <trkpt lat="43.02484" lon="-1.29714">
        <ele>1409.87</ele>
        <time>2025-10-17T08:36:15Z</time>
      </trkpt>
      <trkpt lat="43.02487" lon="-1.29708">
        <ele>1411.42</ele>
        <time>2025-10-17T08:36:33Z</time>
      </trkpt>
      <trkpt lat="43.02495" lon="-1.29701">
        <ele>1413.78</ele>
        <time>2025-10-17T08:36:55Z</time>
      </trkpt>
      <trkpt lat="43.02502" lon="-1.29694">
        <ele>1415.36</ele>
        <time>2025-10-17T08:37:13Z</time>
      </trkpt>
      <trkpt lat="43.02508" lon="-1.29689">
        <ele>1415.72</ele>
        <time>2025-10-17T08:37:36Z</time>
      </trkpt>
      <trkpt lat="43.02511" lon="-1.29687">
        <ele>1416.6</ele>
        <time>2025-10-17T08:38:00Z</time>
      </trkpt>
      <trkpt lat="43.02519" lon="-1.29682">
        <ele>1417.67</ele>
        <time>2025-10-17T08:38:15Z</time>
      </trkpt>
      <trkpt lat="43.02524" lon="-1.29679">
        <ele>1419.56</ele>
        <time>2025-10-17T08:38:32Z</time>
      </trkpt>
      <trkpt lat="43.02531" lon="-1.29672">
        <ele>1420.68</ele>
        <time>2025-10-17T08:38:49Z</time>
      </trkpt>
      <trkpt lat="43.02537" lon="-1.29663">
        <ele>1422.76</ele>
        <time>2025-10-17T08:39:06Z</time>
      </trkpt>
      <trkpt lat="43.02544" lon="-1.29655">
        <ele>1423.91</ele>
        <time>2025-10-17T08:39:24Z</time>
      </trkpt>
      <trkpt lat="43.02546" lon="-1.29652">
        <ele>1425.07</ele>
        <time>2025-10-17T08:39:46Z</time>
      </trkpt>
      <trkpt lat="43.0255" lon="-1.29645">
        <ele>1424.25</ele>
        <time>2025-10-17T08:40:08Z</time>
      </trkpt>
      <trkpt lat="43.02545" lon="-1.29652">
        <ele>1423.97</ele>
        <time>2025-10-17T08:40:23Z</time>
      </trkpt>
      <trkpt lat="43.02548" lon="-1.29651">
        <ele>1422.68</ele>
        <time>2025-10-17T08:40:42Z</time>
      </trkpt>
      <trkpt lat="43.02545" lon="-1.29647">
        <ele>1423.28</ele>
        <time>2025-10-17T08:41:09Z</time>
      </trkpt>
      <trkpt lat="43.02532" lon="-1.29646">
        <ele>1423.53</ele>
        <time>2025-10-17T08:41:27Z</time>
      </trkpt>
      <trkpt lat="43.0252" lon="-1.29646">
        <ele>1423.65</ele>
        <time>2025-10-17T08:41:43Z</time>
      </trkpt>
      <trkpt lat="43.02503" lon="-1.29645">
        <ele>1422.96</ele>
        <time>2025-10-17T08:42:04Z</time>
      </trkpt>
      <trkpt lat="43.02492" lon="-1.29645">
        <ele>1422.92</ele>
        <time>2025-10-17T08:42:17Z</time>
      </trkpt>
      <trkpt lat="43.02479" lon="-1.29639">
        <ele>1424.54</ele>
        <time>2025-10-17T08:42:35Z</time>
      </trkpt>
      <trkpt lat="43.02473" lon="-1.29632">
        <ele>1424.74</ele>
        <time>2025-10-17T08:42:50Z</time>
      </trkpt>
      <trkpt lat="43.02483" lon="-1.29625">
        <ele>1423.23</ele>
        <time>2025-10-17T08:49:18Z</time>
      </trkpt>
      <trkpt lat="43.02497" lon="-1.29619">
        <ele>1426.09</ele>
        <time>2025-10-17T08:49:39Z</time>
      </trkpt>
      <trkpt lat="43.02508" lon="-1.29617">
        <ele>1428.21</ele>
        <time>2025-10-17T08:49:54Z</time>
      </trkpt>
      <trkpt lat="43.02515" lon="-1.29617">
        <ele>1429.29</ele>
        <time>2025-10-17T08:50:09Z</time>
      </trkpt>
      <trkpt lat="43.0252" lon="-1.29614">
        <ele>1430.15</ele>
        <time>2025-10-17T08:50:28Z</time>
      </trkpt>
      <trkpt lat="43.02526" lon="-1.2961">
        <ele>1431.29</ele>
        <time>2025-10-17T08:50:45Z</time>
      </trkpt>
      <trkpt lat="43.02532" lon="-1.29606">
        <ele>1432.06</ele>
        <time>2025-10-17T08:50:59Z</time>
      </trkpt>
      <trkpt lat="43.02544" lon="-1.29598">
        <ele>1434.21</ele>
        <time>2025-10-17T08:51:18Z</time>
      </trkpt>
      <trkpt lat="43.02552" lon="-1.29591">
        <ele>1435.99</ele>
        <time>2025-10-17T08:51:39Z</time>
      </trkpt>
      <trkpt lat="43.02545" lon="-1.29593">
        <ele>1436.99</ele>
        <time>2025-10-17T08:52:00Z</time>
      </trkpt>
      <trkpt lat="43.02543" lon="-1.29591">
        <ele>1437.45</ele>
        <time>2025-10-17T08:52:03Z</time>
      </trkpt>
      <trkpt lat="43.0254" lon="-1.2959">
        <ele>1437.65</ele>
        <time>2025-10-17T08:52:06Z</time>
      </trkpt>
      <trkpt lat="43.02531" lon="-1.29584">
        <ele>1438.62</ele>
        <time>2025-10-17T08:52:16Z</time>
      </trkpt>
      <trkpt lat="43.02522" lon="-1.29576">
        <ele>1439.69</ele>
        <time>2025-10-17T08:52:31Z</time>
      </trkpt>
      <trkpt lat="43.0251" lon="-1.29564">
        <ele>1438.27</ele>
        <time>2025-10-17T08:52:51Z</time>
      </trkpt>
      <trkpt lat="43.02505" lon="-1.29546">
        <ele>1438.72</ele>
        <time>2025-10-17T08:53:11Z</time>
      </trkpt>
      <trkpt lat="43.02505" lon="-1.29531">
        <ele>1438.34</ele>
        <time>2025-10-17T08:53:31Z</time>
      </trkpt>
      <trkpt lat="43.02505" lon="-1.29525">
        <ele>1436.68</ele>
        <time>2025-10-17T08:53:56Z</time>
      </trkpt>
      <trkpt lat="43.0251" lon="-1.29511">
        <ele>1437.33</ele>
        <time>2025-10-17T08:54:17Z</time>
      </trkpt>
      <trkpt lat="43.02514" lon="-1.29492">
        <ele>1437.2</ele>
        <time>2025-10-17T08:54:35Z</time>
      </trkpt>
      <trkpt lat="43.02515" lon="-1.29487">
        <ele>1437.39</ele>
        <time>2025-10-17T08:54:40Z</time>
      </trkpt>
      <trkpt lat="43.02517" lon="-1.29479">
        <ele>1436.79</ele>
        <time>2025-10-17T08:54:47Z</time>
      </trkpt>
      <trkpt lat="43.02523" lon="-1.29462">
        <ele>1435.53</ele>
        <time>2025-10-17T08:55:08Z</time>
      </trkpt>
      <trkpt lat="43.02525" lon="-1.29457">
        <ele>1436.03</ele>
        <time>2025-10-17T08:55:14Z</time>
      </trkpt>
      <trkpt lat="43.02529" lon="-1.29436">
        <ele>1435.02</ele>
        <time>2025-10-17T08:55:36Z</time>
      </trkpt>
      <trkpt lat="43.02531" lon="-1.29424">
        <ele>1432.2</ele>
        <time>2025-10-17T08:55:57Z</time>
      </trkpt>
      <trkpt lat="43.0253" lon="-1.29415">
        <ele>1430.93</ele>
        <time>2025-10-17T08:56:16Z</time>
      </trkpt>
      <trkpt lat="43.0253" lon="-1.29413">
        <ele>1431.85</ele>
        <time>2025-10-17T08:56:21Z</time>
      </trkpt>
      <trkpt lat="43.02528" lon="-1.29412">
        <ele>1429.42</ele>
        <time>2025-10-17T08:56:29Z</time>
      </trkpt>
      <trkpt lat="43.02527" lon="-1.29404">
        <ele>1430.92</ele>
        <time>2025-10-17T08:56:47Z</time>
      </trkpt>
      <trkpt lat="43.02526" lon="-1.29402">
        <ele>1430.23</ele>
        <time>2025-10-17T08:56:58Z</time>
      </trkpt>
      <trkpt lat="43.02525" lon="-1.29407">
        <ele>1428.86</ele>
        <time>2025-10-17T08:57:21Z</time>
      </trkpt>
      <trkpt lat="43.02526" lon="-1.29392">
        <ele>1429.36</ele>
        <time>2025-10-17T08:57:40Z</time>
      </trkpt>
      <trkpt lat="43.02528" lon="-1.29392">
        <ele>1426.81</ele>
        <time>2025-10-17T08:57:59Z</time>
      </trkpt>
      <trkpt lat="43.02528" lon="-1.29392">
        <ele>1427.85</ele>
        <time>2025-10-17T08:58:09Z</time>
      </trkpt>
      <trkpt lat="43.02527" lon="-1.29392">
        <ele>1428.49</ele>
        <time>2025-10-17T08:58:17Z</time>
      </trkpt>
      <trkpt lat="43.02527" lon="-1.29382">
        <ele>1428.75</ele>
        <time>2025-10-17T08:58:35Z</time>
      </trkpt>
      <trkpt lat="43.02528" lon="-1.29377">
        <ele>1426.39</ele>
        <time>2025-10-17T08:58:55Z</time>
      </trkpt>
      <trkpt lat="43.02529" lon="-1.29376">
        <ele>1426.1</ele>
        <time>2025-10-17T08:59:08Z</time>
      </trkpt>
      <trkpt lat="43.02527" lon="-1.29381">
        <ele>1426.11</ele>
        <time>2025-10-17T08:59:24Z</time>
      </trkpt>
      <trkpt lat="43.02524" lon="-1.29394">
        <ele>1424.53</ele>
        <time>2025-10-17T08:59:43Z</time>
      </trkpt>
      <trkpt lat="43.02521" lon="-1.29409">
        <ele>1423.03</ele>
        <time>2025-10-17T09:00:06Z</time>
      </trkpt>
      <trkpt lat="43.02518" lon="-1.29421">
        <ele>1421.53</ele>
        <time>2025-10-17T09:00:25Z</time>
      </trkpt>
      <trkpt lat="43.02514" lon="-1.29432">
        <ele>1420.66</ele>
        <time>2025-10-17T09:00:42Z</time>
      </trkpt>
      <trkpt lat="43.02516" lon="-1.29433">
        <ele>1421.03</ele>
        <time>2025-10-17T09:01:07Z</time>
      </trkpt>
      <trkpt lat="43.02513" lon="-1.29429">
        <ele>1419.83</ele>
        <time>2025-10-17T09:21:34Z</time>
      </trkpt>
      <trkpt lat="43.02515" lon="-1.29414">
        <ele>1421.79</ele>
        <time>2025-10-17T09:21:54Z</time>
      </trkpt>
      <trkpt lat="43.02519" lon="-1.29395">
        <ele>1423.1</ele>
        <time>2025-10-17T09:22:14Z</time>
      </trkpt>
      <trkpt lat="43.02521" lon="-1.29383">
        <ele>1423.52</ele>
        <time>2025-10-17T09:22:31Z</time>
      </trkpt>
      <trkpt lat="43.02525" lon="-1.29366">
        <ele>1424.35</ele>
        <time>2025-10-17T09:22:50Z</time>
      </trkpt>
      <trkpt lat="43.0253" lon="-1.29356">
        <ele>1426</ele>
        <time>2025-10-17T09:23:09Z</time>
      </trkpt>
      <trkpt lat="43.0253" lon="-1.29351">
        <ele>1426.78</ele>
        <time>2025-10-17T09:23:14Z</time>
      </trkpt>
      <trkpt lat="43.02536" lon="-1.29348">
        <ele>1428.44</ele>
        <time>2025-10-17T09:23:31Z</time>
      </trkpt>
      <trkpt lat="43.02544" lon="-1.2935">
        <ele>1431.26</ele>
        <time>2025-10-17T09:23:47Z</time>
      </trkpt>
      <trkpt lat="43.02555" lon="-1.29358">
        <ele>1432.83</ele>
        <time>2025-10-17T09:24:04Z</time>
      </trkpt>
      <trkpt lat="43.0256" lon="-1.29366">
        <ele>1433.99</ele>
        <time>2025-10-17T09:24:24Z</time>
      </trkpt>
      <trkpt lat="43.02561" lon="-1.2937">
        <ele>1433.96</ele>
        <time>2025-10-17T09:24:27Z</time>
      </trkpt>
      <trkpt lat="43.02562" lon="-1.29392">
        <ele>1434.75</ele>
        <time>2025-10-17T09:24:46Z</time>
      </trkpt>
      <trkpt lat="43.02564" lon="-1.29401">
        <ele>1435.06</ele>
        <time>2025-10-17T09:24:54Z</time>
      </trkpt>
      <trkpt lat="43.02566" lon="-1.29407">
        <ele>1434.86</ele>
        <time>2025-10-17T09:24:59Z</time>
      </trkpt>
      <trkpt lat="43.02568" lon="-1.29411">
        <ele>1435.08</ele>
        <time>2025-10-17T09:25:02Z</time>
      </trkpt>
      <trkpt lat="43.02567" lon="-1.29418">
        <ele>1435.27</ele>
        <time>2025-10-17T09:25:09Z</time>
      </trkpt>
      <trkpt lat="43.02571" lon="-1.29431">
        <ele>1436.09</ele>
        <time>2025-10-17T09:25:24Z</time>
      </trkpt>
      <trkpt lat="43.02569" lon="-1.29439">
        <ele>1437.53</ele>
        <time>2025-10-17T09:25:33Z</time>
      </trkpt>
      <trkpt lat="43.0257" lon="-1.2945">
        <ele>1439.88</ele>
        <time>2025-10-17T09:25:50Z</time>
      </trkpt>
      <trkpt lat="43.02565" lon="-1.29465">
        <ele>1442.17</ele>
        <time>2025-10-17T09:26:06Z</time>
      </trkpt>
      <trkpt lat="43.02567" lon="-1.29476">
        <ele>1443.52</ele>
        <time>2025-10-17T09:26:22Z</time>
      </trkpt>
      <trkpt lat="43.02568" lon="-1.29486">
        <ele>1446.01</ele>
        <time>2025-10-17T09:26:40Z</time>
      </trkpt>
      <trkpt lat="43.0257" lon="-1.29493">
        <ele>1447.83</ele>
        <time>2025-10-17T09:26:51Z</time>
      </trkpt>
      <trkpt lat="43.0257" lon="-1.29503">
        <ele>1445.58</ele>
        <time>2025-10-17T09:27:08Z</time>
      </trkpt>
      <trkpt lat="43.02568" lon="-1.29502">
        <ele>1446.81</ele>
        <time>2025-10-17T09:27:31Z</time>
      </trkpt>
      <trkpt lat="43.02568" lon="-1.29504">
        <ele>1445.75</ele>
        <time>2025-10-17T09:27:48Z</time>
      </trkpt>
      <trkpt lat="43.02568" lon="-1.29504">
        <ele>1444.28</ele>
        <time>2025-10-17T09:27:52Z</time>
      </trkpt>
      <trkpt lat="43.02569" lon="-1.29506">
        <ele>1443.77</ele>
        <time>2025-10-17T09:28:16Z</time>
      </trkpt>
      <trkpt lat="43.02567" lon="-1.29507">
        <ele>1444.81</ele>
        <time>2025-10-17T09:28:43Z</time>
      </trkpt>
      <trkpt lat="43.02571" lon="-1.29504">
        <ele>1445.15</ele>
        <time>2025-10-17T09:29:08Z</time>
      </trkpt>
      <trkpt lat="43.02569" lon="-1.29507">
        <ele>1444.53</ele>
        <time>2025-10-17T09:29:30Z</time>
      </trkpt>
      <trkpt lat="43.02565" lon="-1.29505">
        <ele>1445.16</ele>
        <time>2025-10-17T09:29:46Z</time>
      </trkpt>
      <trkpt lat="43.02565" lon="-1.29504">
        <ele>1444.93</ele>
        <time>2025-10-17T09:30:17Z</time>
      </trkpt>
      <trkpt lat="43.02574" lon="-1.29506">
        <ele>1445.22</ele>
        <time>2025-10-17T09:30:42Z</time>
      </trkpt>
      <trkpt lat="43.02576" lon="-1.29505">
        <ele>1445.85</ele>
        <time>2025-10-17T09:30:58Z</time>
      </trkpt>
      <trkpt lat="43.02577" lon="-1.29497">
        <ele>1444.23</ele>
        <time>2025-10-17T09:31:22Z</time>
      </trkpt>
      <trkpt lat="43.02583" lon="-1.29495">
        <ele>1442.36</ele>
        <time>2025-10-17T09:31:43Z</time>
      </trkpt>
      <trkpt lat="43.02586" lon="-1.29499">
        <ele>1442.67</ele>
        <time>2025-10-17T09:31:55Z</time>
      </trkpt>
      <trkpt lat="43.0259" lon="-1.29504">
        <ele>1440.55</ele>
        <time>2025-10-17T09:32:15Z</time>
      </trkpt>
      <trkpt lat="43.02591" lon="-1.29518">
        <ele>1438.72</ele>
        <time>2025-10-17T09:32:34Z</time>
      </trkpt>
      <trkpt lat="43.02597" lon="-1.29525">
        <ele>1436.8</ele>
        <time>2025-10-17T09:32:51Z</time>
      </trkpt>
      <trkpt lat="43.02602" lon="-1.2953">
        <ele>1435.34</ele>
        <time>2025-10-17T09:33:11Z</time>
      </trkpt>
      <trkpt lat="43.02609" lon="-1.29538">
        <ele>1434.03</ele>
        <time>2025-10-17T09:33:29Z</time>
      </trkpt>
      <trkpt lat="43.02615" lon="-1.29546">
        <ele>1432.74</ele>
        <time>2025-10-17T09:33:45Z</time>
      </trkpt>
      <trkpt lat="43.02621" lon="-1.29549">
        <ele>1431.66</ele>
        <time>2025-10-17T09:34:03Z</time>
      </trkpt>
      <trkpt lat="43.02623" lon="-1.29551">
        <ele>1431.52</ele>
        <time>2025-10-17T09:34:31Z</time>
      </trkpt>
      <trkpt lat="43.02625" lon="-1.29551">
        <ele>1432.11</ele>
        <time>2025-10-17T09:34:56Z</time>
      </trkpt>
      <trkpt lat="43.02631" lon="-1.29555">
        <ele>1431.89</ele>
        <time>2025-10-17T09:35:13Z</time>
      </trkpt>
      <trkpt lat="43.02634" lon="-1.29556">
        <ele>1432.45</ele>
        <time>2025-10-17T09:35:16Z</time>
      </trkpt>
      <trkpt lat="43.02641" lon="-1.29563">
        <ele>1432.35</ele>
        <time>2025-10-17T09:35:25Z</time>
      </trkpt>
      <trkpt lat="43.02646" lon="-1.29567">
        <ele>1432.4</ele>
        <time>2025-10-17T09:35:32Z</time>
      </trkpt>
      <trkpt lat="43.02654" lon="-1.29572">
        <ele>1431.99</ele>
        <time>2025-10-17T09:35:41Z</time>
      </trkpt>
      <trkpt lat="43.02664" lon="-1.29581">
        <ele>1432.58</ele>
        <time>2025-10-17T09:35:55Z</time>
      </trkpt>
      <trkpt lat="43.0267" lon="-1.29586">
        <ele>1432.41</ele>
        <time>2025-10-17T09:36:03Z</time>
      </trkpt>
      <trkpt lat="43.02676" lon="-1.29589">
        <ele>1432.5</ele>
        <time>2025-10-17T09:36:09Z</time>
      </trkpt>
      <trkpt lat="43.02686" lon="-1.29597">
        <ele>1432.75</ele>
        <time>2025-10-17T09:36:21Z</time>
      </trkpt>
      <trkpt lat="43.02697" lon="-1.29605">
        <ele>1433.64</ele>
        <time>2025-10-17T09:36:38Z</time>
      </trkpt>
      <trkpt lat="43.02712" lon="-1.29618">
        <ele>1434.74</ele>
        <time>2025-10-17T09:36:57Z</time>
      </trkpt>
      <trkpt lat="43.0272" lon="-1.29623">
        <ele>1435.57</ele>
        <time>2025-10-17T09:37:09Z</time>
      </trkpt>
      <trkpt lat="43.02723" lon="-1.29625">
        <ele>1435.82</ele>
        <time>2025-10-17T09:37:13Z</time>
      </trkpt>
      <trkpt lat="43.02733" lon="-1.29631">
        <ele>1437.42</ele>
        <time>2025-10-17T09:37:34Z</time>
      </trkpt>
      <trkpt lat="43.0274" lon="-1.29638">
        <ele>1438.01</ele>
        <time>2025-10-17T09:37:51Z</time>
      </trkpt>
      <trkpt lat="43.0275" lon="-1.29641">
        <ele>1439.9</ele>
        <time>2025-10-17T09:38:11Z</time>
      </trkpt>
      <trkpt lat="43.02749" lon="-1.29644">
        <ele>1439.63</ele>
        <time>2025-10-17T09:38:35Z</time>
      </trkpt>
      <trkpt lat="43.02757" lon="-1.29653">
        <ele>1441.47</ele>
        <time>2025-10-17T09:38:54Z</time>
      </trkpt>
      <trkpt lat="43.02766" lon="-1.29659">
        <ele>1444.43</ele>
        <time>2025-10-17T09:39:14Z</time>
      </trkpt>
      <trkpt lat="43.02771" lon="-1.29663">
        <ele>1444.53</ele>
        <time>2025-10-17T09:39:21Z</time>
      </trkpt>
      <trkpt lat="43.02777" lon="-1.29668">
        <ele>1445.34</ele>
        <time>2025-10-17T09:39:37Z</time>
      </trkpt>
      <trkpt lat="43.02787" lon="-1.29675">
        <ele>1446.93</ele>
        <time>2025-10-17T09:39:50Z</time>
      </trkpt>
      <trkpt lat="43.02799" lon="-1.29682">
        <ele>1449.02</ele>
        <time>2025-10-17T09:40:08Z</time>
      </trkpt>
      <trkpt lat="43.02811" lon="-1.29691">
        <ele>1452.06</ele>
        <time>2025-10-17T09:40:31Z</time>
      </trkpt>
      <trkpt lat="43.02824" lon="-1.29699">
        <ele>1455.21</ele>
        <time>2025-10-17T09:40:53Z</time>
      </trkpt>
      <trkpt lat="43.02836" lon="-1.29707">
        <ele>1457.4</ele>
        <time>2025-10-17T09:41:12Z</time>
      </trkpt>
      <trkpt lat="43.02846" lon="-1.29717">
        <ele>1459.11</ele>
        <time>2025-10-17T09:41:32Z</time>
      </trkpt>
      <trkpt lat="43.02854" lon="-1.29725">
        <ele>1460.13</ele>
        <time>2025-10-17T09:41:47Z</time>
      </trkpt>
      <trkpt lat="43.02863" lon="-1.2973">
        <ele>1462.38</ele>
        <time>2025-10-17T09:42:05Z</time>
      </trkpt>
      <trkpt lat="43.02869" lon="-1.29736">
        <ele>1465.09</ele>
        <time>2025-10-17T09:42:25Z</time>
      </trkpt>
      <trkpt lat="43.02877" lon="-1.29745">
        <ele>1467.74</ele>
        <time>2025-10-17T09:42:43Z</time>
      </trkpt>
      <trkpt lat="43.02883" lon="-1.29753">
        <ele>1468.99</ele>
        <time>2025-10-17T09:43:00Z</time>
      </trkpt>
      <trkpt lat="43.02889" lon="-1.29761">
        <ele>1471.41</ele>
        <time>2025-10-17T09:43:20Z</time>
      </trkpt>
      <trkpt lat="43.02895" lon="-1.29769">
        <ele>1473.5</ele>
        <time>2025-10-17T09:43:36Z</time>
      </trkpt>
      <trkpt lat="43.02906" lon="-1.29779">
        <ele>1475.65</ele>
        <time>2025-10-17T09:43:56Z</time>
      </trkpt>
      <trkpt lat="43.02916" lon="-1.29782">
        <ele>1477.05</ele>
        <time>2025-10-17T09:44:12Z</time>
      </trkpt>
      <trkpt lat="43.02926" lon="-1.29785">
        <ele>1477.59</ele>
        <time>2025-10-17T09:44:29Z</time>
      </trkpt>
      <trkpt lat="43.0293" lon="-1.29786">
        <ele>1477.69</ele>
        <time>2025-10-17T09:44:33Z</time>
      </trkpt>
      <trkpt lat="43.02932" lon="-1.29786">
        <ele>1477.45</ele>
        <time>2025-10-17T09:44:35Z</time>
      </trkpt>
      <trkpt lat="43.02945" lon="-1.29791">
        <ele>1477.43</ele>
        <time>2025-10-17T09:44:51Z</time>
      </trkpt>
      <trkpt lat="43.02955" lon="-1.29794">
        <ele>1475.87</ele>
        <time>2025-10-17T09:45:05Z</time>
      </trkpt>
      <trkpt lat="43.02969" lon="-1.29795">
        <ele>1473.93</ele>
        <time>2025-10-17T09:45:26Z</time>
      </trkpt>
      <trkpt lat="43.02979" lon="-1.29796">
        <ele>1472.49</ele>
        <time>2025-10-17T09:45:38Z</time>
      </trkpt>
      <trkpt lat="43.02993" lon="-1.29798">
        <ele>1471.86</ele>
        <time>2025-10-17T09:45:54Z</time>
      </trkpt>
      <trkpt lat="43.03009" lon="-1.29799">
        <ele>1470.88</ele>
        <time>2025-10-17T09:46:15Z</time>
      </trkpt>
      <trkpt lat="43.03027" lon="-1.298">
        <ele>1469.29</ele>
        <time>2025-10-17T09:46:35Z</time>
      </trkpt>
      <trkpt lat="43.03039" lon="-1.29796">
        <ele>1469.02</ele>
        <time>2025-10-17T09:46:50Z</time>
      </trkpt>
      <trkpt lat="43.03056" lon="-1.2979">
        <ele>1469.89</ele>
        <time>2025-10-17T09:47:11Z</time>
      </trkpt>
      <trkpt lat="43.03066" lon="-1.29785">
        <ele>1470.9</ele>
        <time>2025-10-17T09:47:25Z</time>
      </trkpt>
      <trkpt lat="43.0307" lon="-1.29782">
        <ele>1471.26</ele>
        <time>2025-10-17T09:47:29Z</time>
      </trkpt>
      <trkpt lat="43.03082" lon="-1.29769">
        <ele>1472.64</ele>
        <time>2025-10-17T09:47:48Z</time>
      </trkpt>
      <trkpt lat="43.03088" lon="-1.29756">
        <ele>1475.93</ele>
        <time>2025-10-17T09:48:07Z</time>
      </trkpt>
      <trkpt lat="43.03092" lon="-1.29748">
        <ele>1476.79</ele>
        <time>2025-10-17T09:48:24Z</time>
      </trkpt>
      <trkpt lat="43.03102" lon="-1.29744">
        <ele>1478.83</ele>
        <time>2025-10-17T09:48:40Z</time>
      </trkpt>
      <trkpt lat="43.03111" lon="-1.2974">
        <ele>1480.06</ele>
        <time>2025-10-17T09:48:59Z</time>
      </trkpt>
      <trkpt lat="43.03124" lon="-1.29736">
        <ele>1482.38</ele>
        <time>2025-10-17T09:49:19Z</time>
      </trkpt>
      <trkpt lat="43.03138" lon="-1.29731">
        <ele>1483.81</ele>
        <time>2025-10-17T09:49:39Z</time>
      </trkpt>
      <trkpt lat="43.0315" lon="-1.29723">
        <ele>1485.53</ele>
        <time>2025-10-17T09:49:57Z</time>
      </trkpt>
      <trkpt lat="43.03161" lon="-1.29714">
        <ele>1487.58</ele>
        <time>2025-10-17T09:50:17Z</time>
      </trkpt>
      <trkpt lat="43.03167" lon="-1.29711">
        <ele>1487.12</ele>
        <time>2025-10-17T09:50:31Z</time>
      </trkpt>
      <trkpt lat="43.03178" lon="-1.29703">
        <ele>1487.59</ele>
        <time>2025-10-17T09:50:45Z</time>
      </trkpt>
      <trkpt lat="43.03192" lon="-1.29696">
        <ele>1489.24</ele>
        <time>2025-10-17T09:51:02Z</time>
      </trkpt>
      <trkpt lat="43.03197" lon="-1.29693">
        <ele>1489.56</ele>
        <time>2025-10-17T09:51:08Z</time>
      </trkpt>
      <trkpt lat="43.03216" lon="-1.2969">
        <ele>1490.81</ele>
        <time>2025-10-17T09:51:30Z</time>
      </trkpt>
      <trkpt lat="43.0323" lon="-1.2969">
        <ele>1492.32</ele>
        <time>2025-10-17T09:51:46Z</time>
      </trkpt>
      <trkpt lat="43.03232" lon="-1.29691">
        <ele>1492.65</ele>
        <time>2025-10-17T09:51:48Z</time>
      </trkpt>
      <trkpt lat="43.03239" lon="-1.29692">
        <ele>1493.22</ele>
        <time>2025-10-17T09:51:58Z</time>
      </trkpt>
      <trkpt lat="43.03253" lon="-1.297">
        <ele>1495.3</ele>
        <time>2025-10-17T09:52:15Z</time>
      </trkpt>
      <trkpt lat="43.03265" lon="-1.29711">
        <ele>1495.51</ele>
        <time>2025-10-17T09:52:36Z</time>
      </trkpt>
      <trkpt lat="43.03279" lon="-1.29719">
        <ele>1494.02</ele>
        <time>2025-10-17T09:52:56Z</time>
      </trkpt>
      <trkpt lat="43.03286" lon="-1.2972">
        <ele>1493.35</ele>
        <time>2025-10-17T09:53:04Z</time>
      </trkpt>
      <trkpt lat="43.03299" lon="-1.29725">
        <ele>1492.8</ele>
        <time>2025-10-17T09:53:19Z</time>
      </trkpt>
      <trkpt lat="43.03317" lon="-1.29733">
        <ele>1491.63</ele>
        <time>2025-10-17T09:53:41Z</time>
      </trkpt>
      <trkpt lat="43.03319" lon="-1.29734">
        <ele>1492.03</ele>
        <time>2025-10-17T09:53:43Z</time>
      </trkpt>
      <trkpt lat="43.03337" lon="-1.29745">
        <ele>1491.8</ele>
        <time>2025-10-17T09:54:03Z</time>
      </trkpt>
      <trkpt lat="43.03341" lon="-1.29747">
        <ele>1491.83</ele>
        <time>2025-10-17T09:54:08Z</time>
      </trkpt>
      <trkpt lat="43.03345" lon="-1.29747">
        <ele>1492.13</ele>
        <time>2025-10-17T09:54:13Z</time>
      </trkpt>
      <trkpt lat="43.03347" lon="-1.29746">
        <ele>1492.41</ele>
        <time>2025-10-17T09:54:15Z</time>
      </trkpt>
      <trkpt lat="43.03353" lon="-1.29747">
        <ele>1492.69</ele>
        <time>2025-10-17T09:54:20Z</time>
      </trkpt>
      <trkpt lat="43.03364" lon="-1.29747">
        <ele>1492.91</ele>
        <time>2025-10-17T09:54:31Z</time>
      </trkpt>
      <trkpt lat="43.03373" lon="-1.29752">
        <ele>1493.61</ele>
        <time>2025-10-17T09:54:41Z</time>
      </trkpt>
      <trkpt lat="43.03376" lon="-1.29753">
        <ele>1493.76</ele>
        <time>2025-10-17T09:54:44Z</time>
      </trkpt>
      <trkpt lat="43.03389" lon="-1.29755">
        <ele>1495.54</ele>
        <time>2025-10-17T09:54:58Z</time>
      </trkpt>
      <trkpt lat="43.03392" lon="-1.29755">
        <ele>1495.47</ele>
        <time>2025-10-17T09:55:02Z</time>
      </trkpt>
      <trkpt lat="43.03405" lon="-1.29753">
        <ele>1496.39</ele>
        <time>2025-10-17T09:55:16Z</time>
      </trkpt>
      <trkpt lat="43.03413" lon="-1.29753">
        <ele>1497.09</ele>
        <time>2025-10-17T09:55:26Z</time>
      </trkpt>
      <trkpt lat="43.03415" lon="-1.29749">
        <ele>1497.13</ele>
        <time>2025-10-17T09:55:30Z</time>
      </trkpt>
      <trkpt lat="43.03426" lon="-1.29753">
        <ele>1497.2</ele>
        <time>2025-10-17T09:55:44Z</time>
      </trkpt>
      <trkpt lat="43.03432" lon="-1.2976">
        <ele>1497.84</ele>
        <time>2025-10-17T09:55:56Z</time>
      </trkpt>
      <trkpt lat="43.03434" lon="-1.29769">
        <ele>1500.07</ele>
        <time>2025-10-17T09:56:11Z</time>
      </trkpt>
      <trkpt lat="43.03434" lon="-1.29767">
        <ele>1500.04</ele>
        <time>2025-10-17T09:56:32Z</time>
      </trkpt>
      <trkpt lat="43.03434" lon="-1.29766">
        <ele>1498.9</ele>
        <time>2025-10-17T09:56:57Z</time>
      </trkpt>
      <trkpt lat="43.03434" lon="-1.29766">
        <ele>1499.73</ele>
        <time>2025-10-17T09:56:59Z</time>
      </trkpt>
      <trkpt lat="43.03431" lon="-1.29767">
        <ele>1498.04</ele>
        <time>2025-10-17T09:57:29Z</time>
      </trkpt>
      <trkpt lat="43.03433" lon="-1.29765">
        <ele>1498.57</ele>
        <time>2025-10-17T09:57:54Z</time>
      </trkpt>
      <trkpt lat="43.03434" lon="-1.29765">
        <ele>1498.63</ele>
        <time>2025-10-17T09:58:17Z</time>
      </trkpt>
      <trkpt lat="43.03434" lon="-1.29764">
        <ele>1496.66</ele>
        <time>2025-10-17T09:58:25Z</time>
      </trkpt>
      <trkpt lat="43.03426" lon="-1.29762">
        <ele>1494.56</ele>
        <time>2025-10-17T09:58:36Z</time>
      </trkpt>
      <trkpt lat="43.03422" lon="-1.29762">
        <ele>1497.12</ele>
        <time>2025-10-17T09:58:43Z</time>
      </trkpt>
      <trkpt lat="43.03418" lon="-1.29763">
        <ele>1495.3</ele>
        <time>2025-10-17T09:58:48Z</time>
      </trkpt>
      <trkpt lat="43.03416" lon="-1.29763">
        <ele>1497.2</ele>
        <time>2025-10-17T09:58:53Z</time>
      </trkpt>
      <trkpt lat="43.03414" lon="-1.29761">
        <ele>1496.59</ele>
        <time>2025-10-17T09:59:05Z</time>
      </trkpt>
      <trkpt lat="43.03408" lon="-1.29755">
        <ele>1495.57</ele>
        <time>2025-10-17T09:59:15Z</time>
      </trkpt>
      <trkpt lat="43.03399" lon="-1.29749">
        <ele>1495.13</ele>
        <time>2025-10-17T09:59:35Z</time>
      </trkpt>
      <trkpt lat="43.03396" lon="-1.2975">
        <ele>1493.98</ele>
        <time>2025-10-17T09:59:40Z</time>
      </trkpt>
      <trkpt lat="43.03384" lon="-1.29752">
        <ele>1492.39</ele>
        <time>2025-10-17T09:59:52Z</time>
      </trkpt>
      <trkpt lat="43.03369" lon="-1.29751">
        <ele>1491.33</ele>
        <time>2025-10-17T10:00:09Z</time>
      </trkpt>
      <trkpt lat="43.03355" lon="-1.2975">
        <ele>1490.85</ele>
        <time>2025-10-17T10:00:22Z</time>
      </trkpt>
      <trkpt lat="43.03344" lon="-1.29747">
        <ele>1491.11</ele>
        <time>2025-10-17T10:00:35Z</time>
      </trkpt>
      <trkpt lat="43.03334" lon="-1.29741">
        <ele>1490.02</ele>
        <time>2025-10-17T10:00:47Z</time>
      </trkpt>
      <trkpt lat="43.03321" lon="-1.29739">
        <ele>1490.06</ele>
        <time>2025-10-17T10:00:59Z</time>
      </trkpt>
      <trkpt lat="43.0332" lon="-1.29739">
        <ele>1490.81</ele>
        <time>2025-10-17T10:01:00Z</time>
      </trkpt>
      <trkpt lat="43.03318" lon="-1.29737">
        <ele>1490.57</ele>
        <time>2025-10-17T10:01:03Z</time>
      </trkpt>
      <trkpt lat="43.0331" lon="-1.29735">
        <ele>1491.02</ele>
        <time>2025-10-17T10:01:11Z</time>
      </trkpt>
      <trkpt lat="43.03301" lon="-1.29733">
        <ele>1492</ele>
        <time>2025-10-17T10:01:23Z</time>
      </trkpt>
      <trkpt lat="43.03293" lon="-1.29733">
        <ele>1492.84</ele>
        <time>2025-10-17T10:01:32Z</time>
      </trkpt>
      <trkpt lat="43.03292" lon="-1.29728">
        <ele>1493.24</ele>
        <time>2025-10-17T10:01:36Z</time>
      </trkpt>
      <trkpt lat="43.03284" lon="-1.29725">
        <ele>1493.39</ele>
        <time>2025-10-17T10:01:45Z</time>
      </trkpt>
      <trkpt lat="43.03278" lon="-1.29725">
        <ele>1494.02</ele>
        <time>2025-10-17T10:01:52Z</time>
      </trkpt>
      <trkpt lat="43.03274" lon="-1.29723">
        <ele>1493.72</ele>
        <time>2025-10-17T10:01:56Z</time>
      </trkpt>
      <trkpt lat="43.03268" lon="-1.29727">
        <ele>1494.02</ele>
        <time>2025-10-17T10:02:05Z</time>
      </trkpt>
      <trkpt lat="43.03264" lon="-1.29725">
        <ele>1497.89</ele>
        <time>2025-10-17T10:02:09Z</time>
      </trkpt>
      <trkpt lat="43.03261" lon="-1.29723">
        <ele>1496.08</ele>
        <time>2025-10-17T10:02:12Z</time>
      </trkpt>
      <trkpt lat="43.03253" lon="-1.29715">
        <ele>1496.22</ele>
        <time>2025-10-17T10:02:28Z</time>
      </trkpt>
      <trkpt lat="43.03244" lon="-1.29708">
        <ele>1496.73</ele>
        <time>2025-10-17T10:02:39Z</time>
      </trkpt>
      <trkpt lat="43.03236" lon="-1.29701">
        <ele>1492.98</ele>
        <time>2025-10-17T10:02:52Z</time>
      </trkpt>
      <trkpt lat="43.03234" lon="-1.29701">
        <ele>1492.16</ele>
        <time>2025-10-17T10:02:54Z</time>
      </trkpt>
      <trkpt lat="43.0322" lon="-1.29697">
        <ele>1491.82</ele>
        <time>2025-10-17T10:03:11Z</time>
      </trkpt>
      <trkpt lat="43.03208" lon="-1.29696">
        <ele>1490.13</ele>
        <time>2025-10-17T10:03:23Z</time>
      </trkpt>
      <trkpt lat="43.03197" lon="-1.29699">
        <ele>1489.33</ele>
        <time>2025-10-17T10:03:37Z</time>
      </trkpt>
      <trkpt lat="43.03187" lon="-1.29704">
        <ele>1489.19</ele>
        <time>2025-10-17T10:03:48Z</time>
      </trkpt>
      <trkpt lat="43.03181" lon="-1.29709">
        <ele>1488.7</ele>
        <time>2025-10-17T10:03:55Z</time>
      </trkpt>
      <trkpt lat="43.03178" lon="-1.2971">
        <ele>1488.37</ele>
        <time>2025-10-17T10:03:58Z</time>
      </trkpt>
      <trkpt lat="43.03166" lon="-1.29716">
        <ele>1488.24</ele>
        <time>2025-10-17T10:04:14Z</time>
      </trkpt>
      <trkpt lat="43.03154" lon="-1.29726">
        <ele>1487.18</ele>
        <time>2025-10-17T10:04:30Z</time>
      </trkpt>
      <trkpt lat="43.03145" lon="-1.29736">
        <ele>1485.03</ele>
        <time>2025-10-17T10:04:45Z</time>
      </trkpt>
      <trkpt lat="43.03128" lon="-1.29744">
        <ele>1482.59</ele>
        <time>2025-10-17T10:05:06Z</time>
      </trkpt>
      <trkpt lat="43.03126" lon="-1.29744">
        <ele>1482.72</ele>
        <time>2025-10-17T10:05:08Z</time>
      </trkpt>
      <trkpt lat="43.03112" lon="-1.29745">
        <ele>1481.82</ele>
        <time>2025-10-17T10:05:27Z</time>
      </trkpt>
      <trkpt lat="43.031" lon="-1.29747">
        <ele>1478.54</ele>
        <time>2025-10-17T10:05:45Z</time>
      </trkpt>
      <trkpt lat="43.03091" lon="-1.29757">
        <ele>1476.79</ele>
        <time>2025-10-17T10:06:04Z</time>
      </trkpt>
      <trkpt lat="43.03091" lon="-1.29757">
        <ele>1473.49</ele>
        <time>2025-10-17T10:06:14Z</time>
      </trkpt>
      <trkpt lat="43.03091" lon="-1.29758">
        <ele>1475.69</ele>
        <time>2025-10-17T10:06:17Z</time>
      </trkpt>
      <trkpt lat="43.03085" lon="-1.29765">
        <ele>1475.09</ele>
        <time>2025-10-17T10:06:33Z</time>
      </trkpt>
      <trkpt lat="43.03075" lon="-1.2978">
        <ele>1471.37</ele>
        <time>2025-10-17T10:06:51Z</time>
      </trkpt>
      <trkpt lat="43.03075" lon="-1.29781">
        <ele>1470.85</ele>
        <time>2025-10-17T10:06:52Z</time>
      </trkpt>
      <trkpt lat="43.03069" lon="-1.29787">
        <ele>1471.14</ele>
        <time>2025-10-17T10:07:00Z</time>
      </trkpt>
      <trkpt lat="43.03067" lon="-1.29792">
        <ele>1470.81</ele>
        <time>2025-10-17T10:07:05Z</time>
      </trkpt>
      <trkpt lat="43.03051" lon="-1.29797">
        <ele>1468.91</ele>
        <time>2025-10-17T10:07:25Z</time>
      </trkpt>
      <trkpt lat="43.03045" lon="-1.298">
        <ele>1468.52</ele>
        <time>2025-10-17T10:07:43Z</time>
      </trkpt>
      <trkpt lat="43.03033" lon="-1.29805">
        <ele>1468.84</ele>
        <time>2025-10-17T10:07:56Z</time>
      </trkpt>
      <trkpt lat="43.03014" lon="-1.29808">
        <ele>1469.43</ele>
        <time>2025-10-17T10:08:15Z</time>
      </trkpt>
      <trkpt lat="43.03008" lon="-1.29806">
        <ele>1469.85</ele>
        <time>2025-10-17T10:08:22Z</time>
      </trkpt>
      <trkpt lat="43.02996" lon="-1.29805">
        <ele>1470.88</ele>
        <time>2025-10-17T10:08:35Z</time>
      </trkpt>
      <trkpt lat="43.02986" lon="-1.29804">
        <ele>1471.54</ele>
        <time>2025-10-17T10:08:45Z</time>
      </trkpt>
      <trkpt lat="43.02979" lon="-1.29804">
        <ele>1471.96</ele>
        <time>2025-10-17T10:08:54Z</time>
      </trkpt>
      <trkpt lat="43.02971" lon="-1.29802">
        <ele>1473.37</ele>
        <time>2025-10-17T10:09:04Z</time>
      </trkpt>
      <trkpt lat="43.02965" lon="-1.29802">
        <ele>1473.88</ele>
        <time>2025-10-17T10:09:10Z</time>
      </trkpt>
      <trkpt lat="43.02961" lon="-1.298">
        <ele>1474.05</ele>
        <time>2025-10-17T10:09:15Z</time>
      </trkpt>
      <trkpt lat="43.02955" lon="-1.29801">
        <ele>1475.7</ele>
        <time>2025-10-17T10:09:22Z</time>
      </trkpt>
      <trkpt lat="43.02945" lon="-1.29799">
        <ele>1475.92</ele>
        <time>2025-10-17T10:09:34Z</time>
      </trkpt>
      <trkpt lat="43.0294" lon="-1.29796">
        <ele>1475.96</ele>
        <time>2025-10-17T10:09:40Z</time>
      </trkpt>
      <trkpt lat="43.0293" lon="-1.29792">
        <ele>1477</ele>
        <time>2025-10-17T10:09:52Z</time>
      </trkpt>
      <trkpt lat="43.02923" lon="-1.29792">
        <ele>1476.47</ele>
        <time>2025-10-17T10:10:00Z</time>
      </trkpt>
      <trkpt lat="43.02917" lon="-1.29789">
        <ele>1477.03</ele>
        <time>2025-10-17T10:10:13Z</time>
      </trkpt>
      <trkpt lat="43.02912" lon="-1.29785">
        <ele>1477.31</ele>
        <time>2025-10-17T10:10:31Z</time>
      </trkpt>
      <trkpt lat="43.02897" lon="-1.29773">
        <ele>1475.29</ele>
        <time>2025-10-17T10:10:53Z</time>
      </trkpt>
      <trkpt lat="43.02888" lon="-1.29763">
        <ele>1472.03</ele>
        <time>2025-10-17T10:11:11Z</time>
      </trkpt>
      <trkpt lat="43.02886" lon="-1.2976">
        <ele>1471</ele>
        <time>2025-10-17T10:11:16Z</time>
      </trkpt>
      <trkpt lat="43.02877" lon="-1.29751">
        <ele>1468.63</ele>
        <time>2025-10-17T10:11:38Z</time>
      </trkpt>
      <trkpt lat="43.02871" lon="-1.29744">
        <ele>1467.15</ele>
        <time>2025-10-17T10:11:51Z</time>
      </trkpt>
      <trkpt lat="43.02869" lon="-1.2974">
        <ele>1465.67</ele>
        <time>2025-10-17T10:11:57Z</time>
      </trkpt>
      <trkpt lat="43.02866" lon="-1.29738">
        <ele>1465.26</ele>
        <time>2025-10-17T10:12:02Z</time>
      </trkpt>
      <trkpt lat="43.02861" lon="-1.29732">
        <ele>1462.09</ele>
        <time>2025-10-17T10:12:14Z</time>
      </trkpt>
      <trkpt lat="43.02847" lon="-1.29721">
        <ele>1460.25</ele>
        <time>2025-10-17T10:12:35Z</time>
      </trkpt>
      <trkpt lat="43.02835" lon="-1.29711">
        <ele>1458.48</ele>
        <time>2025-10-17T10:12:51Z</time>
      </trkpt>
      <trkpt lat="43.02826" lon="-1.29703">
        <ele>1456.84</ele>
        <time>2025-10-17T10:13:06Z</time>
      </trkpt>
      <trkpt lat="43.02819" lon="-1.29698">
        <ele>1454.76</ele>
        <time>2025-10-17T10:13:18Z</time>
      </trkpt>
      <trkpt lat="43.02807" lon="-1.2969">
        <ele>1452.28</ele>
        <time>2025-10-17T10:13:37Z</time>
      </trkpt>
      <trkpt lat="43.02803" lon="-1.29687">
        <ele>1450.5</ele>
        <time>2025-10-17T10:13:45Z</time>
      </trkpt>
      <trkpt lat="43.02791" lon="-1.29679">
        <ele>1447.8</ele>
        <time>2025-10-17T10:14:05Z</time>
      </trkpt>
      <trkpt lat="43.02778" lon="-1.2967">
        <ele>1444.98</ele>
        <time>2025-10-17T10:14:24Z</time>
      </trkpt>
      <trkpt lat="43.02764" lon="-1.29659">
        <ele>1442.63</ele>
        <time>2025-10-17T10:14:43Z</time>
      </trkpt>
      <trkpt lat="43.0276" lon="-1.29654">
        <ele>1442.88</ele>
        <time>2025-10-17T10:14:59Z</time>
      </trkpt>
      <trkpt lat="43.02757" lon="-1.2965">
        <ele>1441.91</ele>
        <time>2025-10-17T10:15:28Z</time>
      </trkpt>
      <trkpt lat="43.02749" lon="-1.29642">
        <ele>1439.89</ele>
        <time>2025-10-17T10:15:48Z</time>
      </trkpt>
      <trkpt lat="43.02746" lon="-1.29644">
        <ele>1439.65</ele>
        <time>2025-10-17T10:16:11Z</time>
      </trkpt>
      <trkpt lat="43.0274" lon="-1.2964">
        <ele>1438.28</ele>
        <time>2025-10-17T10:16:26Z</time>
      </trkpt>
      <trkpt lat="43.02737" lon="-1.29638">
        <ele>1438.31</ele>
        <time>2025-10-17T10:16:30Z</time>
      </trkpt>
      <trkpt lat="43.02735" lon="-1.29636">
        <ele>1437.59</ele>
        <time>2025-10-17T10:16:32Z</time>
      </trkpt>
      <trkpt lat="43.02724" lon="-1.29628">
        <ele>1435.92</ele>
        <time>2025-10-17T10:16:45Z</time>
      </trkpt>
      <trkpt lat="43.0272" lon="-1.29626">
        <ele>1435.07</ele>
        <time>2025-10-17T10:16:49Z</time>
      </trkpt>
      <trkpt lat="43.0271" lon="-1.29618">
        <ele>1434.11</ele>
        <time>2025-10-17T10:17:02Z</time>
      </trkpt>
      <trkpt lat="43.02697" lon="-1.29608">
        <ele>1432.97</ele>
        <time>2025-10-17T10:17:18Z</time>
      </trkpt>
      <trkpt lat="43.02682" lon="-1.29597">
        <ele>1431.94</ele>
        <time>2025-10-17T10:17:37Z</time>
      </trkpt>
      <trkpt lat="43.02674" lon="-1.29592">
        <ele>1431.52</ele>
        <time>2025-10-17T10:17:45Z</time>
      </trkpt>
      <trkpt lat="43.02665" lon="-1.29586">
        <ele>1430.94</ele>
        <time>2025-10-17T10:17:54Z</time>
      </trkpt>
      <trkpt lat="43.02652" lon="-1.29576">
        <ele>1431.16</ele>
        <time>2025-10-17T10:18:09Z</time>
      </trkpt>
      <trkpt lat="43.02649" lon="-1.29574">
        <ele>1431.5</ele>
        <time>2025-10-17T10:18:12Z</time>
      </trkpt>
      <trkpt lat="43.02647" lon="-1.29573">
        <ele>1431.08</ele>
        <time>2025-10-17T10:18:14Z</time>
      </trkpt>
      <trkpt lat="43.0264" lon="-1.29567">
        <ele>1430.83</ele>
        <time>2025-10-17T10:18:24Z</time>
      </trkpt>
      <trkpt lat="43.02631" lon="-1.29559">
        <ele>1431.63</ele>
        <time>2025-10-17T10:18:36Z</time>
      </trkpt>
      <trkpt lat="43.02622" lon="-1.29555">
        <ele>1430.48</ele>
        <time>2025-10-17T10:18:49Z</time>
      </trkpt>
      <trkpt lat="43.02622" lon="-1.29555">
        <ele>1429.02</ele>
        <time>2025-10-17T10:18:52Z</time>
      </trkpt>
      <trkpt lat="43.02614" lon="-1.29563">
        <ele>1428.27</ele>
        <time>2025-10-17T10:19:11Z</time>
      </trkpt>
      <trkpt lat="43.0261" lon="-1.29567">
        <ele>1428.58</ele>
        <time>2025-10-17T10:19:30Z</time>
      </trkpt>
      <trkpt lat="43.02611" lon="-1.29563">
        <ele>1428.94</ele>
        <time>2025-10-17T10:19:51Z</time>
      </trkpt>
      <trkpt lat="43.02614" lon="-1.29562">
        <ele>1429.66</ele>
        <time>2025-10-17T10:20:13Z</time>
      </trkpt>
      <trkpt lat="43.02615" lon="-1.29563">
        <ele>1429.26</ele>
        <time>2025-10-17T10:20:39Z</time>
      </trkpt>
      <trkpt lat="43.02615" lon="-1.29564">
        <ele>1429.29</ele>
        <time>2025-10-17T10:21:12Z</time>
      </trkpt>
      <trkpt lat="43.02614" lon="-1.29565">
        <ele>1429.19</ele>
        <time>2025-10-17T10:21:45Z</time>
      </trkpt>
      <trkpt lat="43.02621" lon="-1.29564">
        <ele>1428.19</ele>
        <time>2025-10-17T10:22:02Z</time>
      </trkpt>
      <trkpt lat="43.02618" lon="-1.29577">
        <ele>1425.45</ele>
        <time>2025-10-17T10:22:21Z</time>
      </trkpt>
      <trkpt lat="43.02609" lon="-1.29587">
        <ele>1422.41</ele>
        <time>2025-10-17T10:22:42Z</time>
      </trkpt>
      <trkpt lat="43.02601" lon="-1.29593">
        <ele>1419.41</ele>
        <time>2025-10-17T10:23:02Z</time>
      </trkpt>
      <trkpt lat="43.02594" lon="-1.29603">
        <ele>1417.54</ele>
        <time>2025-10-17T10:23:22Z</time>
      </trkpt>
      <trkpt lat="43.026" lon="-1.2961">
        <ele>1415.45</ele>
        <time>2025-10-17T10:23:41Z</time>
      </trkpt>
      <trkpt lat="43.02605" lon="-1.29621">
        <ele>1412.45</ele>
        <time>2025-10-17T10:23:59Z</time>
      </trkpt>
      <trkpt lat="43.02612" lon="-1.29638">
        <ele>1409.83</ele>
        <time>2025-10-17T10:24:19Z</time>
      </trkpt>
      <trkpt lat="43.02619" lon="-1.29656">
        <ele>1407.23</ele>
        <time>2025-10-17T10:24:38Z</time>
      </trkpt>
      <trkpt lat="43.02626" lon="-1.29675">
        <ele>1405.8</ele>
        <time>2025-10-17T10:24:58Z</time>
      </trkpt>
      <trkpt lat="43.0263" lon="-1.29685">
        <ele>1404.39</ele>
        <time>2025-10-17T10:25:18Z</time>
      </trkpt>
      <trkpt lat="43.02634" lon="-1.29701">
        <ele>1401.54</ele>
        <time>2025-10-17T10:25:40Z</time>
      </trkpt>
      <trkpt lat="43.02638" lon="-1.29721">
        <ele>1398.43</ele>
        <time>2025-10-17T10:26:04Z</time>
      </trkpt>
      <trkpt lat="43.02643" lon="-1.29736">
        <ele>1395.63</ele>
        <time>2025-10-17T10:26:28Z</time>
      </trkpt>
      <trkpt lat="43.02648" lon="-1.29752">
        <ele>1393.13</ele>
        <time>2025-10-17T10:26:48Z</time>
      </trkpt>
      <trkpt lat="43.02651" lon="-1.29768">
        <ele>1391.09</ele>
        <time>2025-10-17T10:27:11Z</time>
      </trkpt>
      <trkpt lat="43.02662" lon="-1.29779">
        <ele>1389.18</ele>
        <time>2025-10-17T10:27:31Z</time>
      </trkpt>
      <trkpt lat="43.02673" lon="-1.29791">
        <ele>1386.76</ele>
        <time>2025-10-17T10:27:49Z</time>
      </trkpt>
      <trkpt lat="43.02685" lon="-1.29808">
        <ele>1384.13</ele>
        <time>2025-10-17T10:28:12Z</time>
      </trkpt>
      <trkpt lat="43.02699" lon="-1.29824">
        <ele>1381.65</ele>
        <time>2025-10-17T10:28:35Z</time>
      </trkpt>
      <trkpt lat="43.02715" lon="-1.29841">
        <ele>1379.28</ele>
        <time>2025-10-17T10:28:58Z</time>
      </trkpt>
      <trkpt lat="43.02727" lon="-1.29855">
        <ele>1376.98</ele>
        <time>2025-10-17T10:29:16Z</time>
      </trkpt>
      <trkpt lat="43.02737" lon="-1.2987">
        <ele>1375.23</ele>
        <time>2025-10-17T10:29:33Z</time>
      </trkpt>
      <trkpt lat="43.02742" lon="-1.2988">
        <ele>1374.87</ele>
        <time>2025-10-17T10:29:41Z</time>
      </trkpt>
      <trkpt lat="43.02745" lon="-1.29887">
        <ele>1374.19</ele>
        <time>2025-10-17T10:29:48Z</time>
      </trkpt>
      <trkpt lat="43.02748" lon="-1.29908">
        <ele>1372.4</ele>
        <time>2025-10-17T10:30:03Z</time>
      </trkpt>
      <trkpt lat="43.02748" lon="-1.29915">
        <ele>1372.02</ele>
        <time>2025-10-17T10:30:08Z</time>
      </trkpt>
      <trkpt lat="43.02749" lon="-1.2992">
        <ele>1371.16</ele>
        <time>2025-10-17T10:30:12Z</time>
      </trkpt>
      <trkpt lat="43.0275" lon="-1.29943">
        <ele>1369.68</ele>
        <time>2025-10-17T10:30:30Z</time>
      </trkpt>
      <trkpt lat="43.02751" lon="-1.2997">
        <ele>1367.78</ele>
        <time>2025-10-17T10:30:51Z</time>
      </trkpt>
      <trkpt lat="43.02752" lon="-1.29987">
        <ele>1366.26</ele>
        <time>2025-10-17T10:31:07Z</time>
      </trkpt>
      <trkpt lat="43.02752" lon="-1.2999">
        <ele>1366.22</ele>
        <time>2025-10-17T10:31:09Z</time>
      </trkpt>
      <trkpt lat="43.02752" lon="-1.30013">
        <ele>1364.23</ele>
        <time>2025-10-17T10:31:27Z</time>
      </trkpt>
      <trkpt lat="43.02751" lon="-1.30014">
        <ele>1364.05</ele>
        <time>2025-10-17T10:31:29Z</time>
      </trkpt>
      <trkpt lat="43.0275" lon="-1.30018">
        <ele>1363.81</ele>
        <time>2025-10-17T10:31:32Z</time>
      </trkpt>
      <trkpt lat="43.0275" lon="-1.30037">
        <ele>1362.05</ele>
        <time>2025-10-17T10:31:49Z</time>
      </trkpt>
      <trkpt lat="43.02752" lon="-1.30064">
        <ele>1360.24</ele>
        <time>2025-10-17T10:32:11Z</time>
      </trkpt>
      <trkpt lat="43.0275" lon="-1.30084">
        <ele>1358.88</ele>
        <time>2025-10-17T10:32:26Z</time>
      </trkpt>
      <trkpt lat="43.02746" lon="-1.30108">
        <ele>1356.12</ele>
        <time>2025-10-17T10:32:46Z</time>
      </trkpt>
      <trkpt lat="43.02747" lon="-1.3013">
        <ele>1354.35</ele>
        <time>2025-10-17T10:33:04Z</time>
      </trkpt>
      <trkpt lat="43.02748" lon="-1.30131">
        <ele>1352.88</ele>
        <time>2025-10-17T10:33:24Z</time>
      </trkpt>
      <trkpt lat="43.02749" lon="-1.30126">
        <ele>1352.23</ele>
        <time>2025-10-17T10:33:54Z</time>
      </trkpt>
      <trkpt lat="43.02747" lon="-1.30129">
        <ele>1353.32</ele>
        <time>2025-10-17T10:34:17Z</time>
      </trkpt>
      <trkpt lat="43.02747" lon="-1.30132">
        <ele>1352.45</ele>
        <time>2025-10-17T10:34:44Z</time>
      </trkpt>
      <trkpt lat="43.02747" lon="-1.30131">
        <ele>1352.18</ele>
        <time>2025-10-17T10:35:14Z</time>
      </trkpt>
      <trkpt lat="43.02747" lon="-1.30128">
        <ele>1352.82</ele>
        <time>2025-10-17T10:35:47Z</time>
      </trkpt>
      <trkpt lat="43.02748" lon="-1.3013">
        <ele>1352.41</ele>
        <time>2025-10-17T10:36:17Z</time>
      </trkpt>
      <trkpt lat="43.02747" lon="-1.3013">
        <ele>1352.86</ele>
        <time>2025-10-17T10:36:48Z</time>
      </trkpt>
      <trkpt lat="43.02748" lon="-1.30126">
        <ele>1352.74</ele>
        <time>2025-10-17T10:37:17Z</time>
      </trkpt>
      <trkpt lat="43.02748" lon="-1.30127">
        <ele>1352.96</ele>
        <time>2025-10-17T10:37:53Z</time>
      </trkpt>
      <trkpt lat="43.02747" lon="-1.30131">
        <ele>1352.39</ele>
        <time>2025-10-17T10:38:25Z</time>
      </trkpt>
      <trkpt lat="43.02747" lon="-1.3013">
        <ele>1352.42</ele>
        <time>2025-10-17T10:38:57Z</time>
      </trkpt>
      <trkpt lat="43.02747" lon="-1.3013">
        <ele>1352.35</ele>
        <time>2025-10-17T10:39:29Z</time>
      </trkpt>
      <trkpt lat="43.02747" lon="-1.3013">
        <ele>1352.48</ele>
        <time>2025-10-17T10:40:03Z</time>
      </trkpt>
      <trkpt lat="43.02747" lon="-1.30129">
        <ele>1353.03</ele>
        <time>2025-10-17T10:40:39Z</time>
      </trkpt>
      <trkpt lat="43.02747" lon="-1.30129">
        <ele>1352.77</ele>
        <time>2025-10-17T10:41:12Z</time>
      </trkpt>
      <trkpt lat="43.02747" lon="-1.3013">
        <ele>1352.61</ele>
        <time>2025-10-17T10:41:44Z</time>
      </trkpt>
      <trkpt lat="43.02746" lon="-1.30129">
        <ele>1352.31</ele>
        <time>2025-10-17T10:42:14Z</time>
      </trkpt>
      <trkpt lat="43.02745" lon="-1.3013">
        <ele>1351.67</ele>
        <time>2025-10-17T10:42:44Z</time>
      </trkpt>
      <trkpt lat="43.02746" lon="-1.30131">
        <ele>1352.5</ele>
        <time>2025-10-17T10:43:15Z</time>
      </trkpt>
      <trkpt lat="43.02747" lon="-1.30131">
        <ele>1352.93</ele>
        <time>2025-10-17T10:43:47Z</time>
      </trkpt>
      <trkpt lat="43.02746" lon="-1.30129">
        <ele>1352.44</ele>
        <time>2025-10-17T10:44:19Z</time>
      </trkpt>
      <trkpt lat="43.02746" lon="-1.3013">
        <ele>1351.86</ele>
        <time>2025-10-17T10:44:52Z</time>
      </trkpt>
      <trkpt lat="43.02747" lon="-1.30128">
        <ele>1352.38</ele>
        <time>2025-10-17T10:45:21Z</time>
      </trkpt>
      <trkpt lat="43.02748" lon="-1.30129">
        <ele>1352.44</ele>
        <time>2025-10-17T10:45:50Z</time>
      </trkpt>
      <trkpt lat="43.02747" lon="-1.30128">
        <ele>1351.96</ele>
        <time>2025-10-17T10:46:21Z</time>
      </trkpt>
      <trkpt lat="43.02747" lon="-1.30128">
        <ele>1352.62</ele>
        <time>2025-10-17T10:46:50Z</time>
      </trkpt>
      <trkpt lat="43.02748" lon="-1.30127">
        <ele>1352.23</ele>
        <time>2025-10-17T10:47:15Z</time>
      </trkpt>
      <trkpt lat="43.02747" lon="-1.30126">
        <ele>1352.41</ele>
        <time>2025-10-17T10:47:47Z</time>
      </trkpt>
      <trkpt lat="43.02747" lon="-1.30126">
        <ele>1352.62</ele>
        <time>2025-10-17T10:48:17Z</time>
      </trkpt>
      <trkpt lat="43.02748" lon="-1.30126">
        <ele>1352.05</ele>
        <time>2025-10-17T10:48:50Z</time>
      </trkpt>
      <trkpt lat="43.02747" lon="-1.30126">
        <ele>1352.36</ele>
        <time>2025-10-17T10:49:18Z</time>
      </trkpt>
      <trkpt lat="43.02749" lon="-1.30127">
        <ele>1352.4</ele>
        <time>2025-10-17T10:49:44Z</time>
      </trkpt>
      <trkpt lat="43.02747" lon="-1.30128">
        <ele>1352.28</ele>
        <time>2025-10-17T10:50:11Z</time>
      </trkpt>
      <trkpt lat="43.02748" lon="-1.30129">
        <ele>1352.21</ele>
        <time>2025-10-17T10:50:42Z</time>
      </trkpt>
      <trkpt lat="43.02749" lon="-1.30131">
        <ele>1351.92</ele>
        <time>2025-10-17T10:51:18Z</time>
      </trkpt>
      <trkpt lat="43.02747" lon="-1.30131">
        <ele>1352.13</ele>
        <time>2025-10-17T10:51:50Z</time>
      </trkpt>
      <trkpt lat="43.02748" lon="-1.30129">
        <ele>1351.77</ele>
        <time>2025-10-17T10:52:16Z</time>
      </trkpt>
      <trkpt lat="43.02746" lon="-1.3013">
        <ele>1351.88</ele>
        <time>2025-10-17T10:52:50Z</time>
      </trkpt>
      <trkpt lat="43.02746" lon="-1.3013">
        <ele>1351.96</ele>
        <time>2025-10-17T10:53:18Z</time>
      </trkpt>
      <trkpt lat="43.02746" lon="-1.30129">
        <ele>1351.52</ele>
        <time>2025-10-17T10:53:54Z</time>
      </trkpt>
      <trkpt lat="43.02747" lon="-1.30129">
        <ele>1351.28</ele>
        <time>2025-10-17T10:54:21Z</time>
      </trkpt>
      <trkpt lat="43.02748" lon="-1.30131">
        <ele>1351.4</ele>
        <time>2025-10-17T10:54:51Z</time>
      </trkpt>
      <trkpt lat="43.02745" lon="-1.30128">
        <ele>1351.51</ele>
        <time>2025-10-17T10:55:23Z</time>
      </trkpt>
      <trkpt lat="43.02744" lon="-1.30129">
        <ele>1353.52</ele>
        <time>2025-10-17T10:55:41Z</time>
      </trkpt>
      <trkpt lat="43.02743" lon="-1.30137">
        <ele>1352.12</ele>
        <time>2025-10-17T10:56:01Z</time>
      </trkpt>
      <trkpt lat="43.02737" lon="-1.30152">
        <ele>1350.42</ele>
        <time>2025-10-17T10:56:21Z</time>
      </trkpt>
      <trkpt lat="43.02737" lon="-1.30172">
        <ele>1348.56</ele>
        <time>2025-10-17T10:56:43Z</time>
      </trkpt>
      <trkpt lat="43.0273" lon="-1.30193">
        <ele>1345.57</ele>
        <time>2025-10-17T10:57:06Z</time>
      </trkpt>
      <trkpt lat="43.02723" lon="-1.30214">
        <ele>1342.35</ele>
        <time>2025-10-17T10:57:29Z</time>
      </trkpt>
      <trkpt lat="43.02718" lon="-1.30236">
        <ele>1340.12</ele>
        <time>2025-10-17T10:57:50Z</time>
      </trkpt>
      <trkpt lat="43.02714" lon="-1.30266">
        <ele>1338.35</ele>
        <time>2025-10-17T10:58:15Z</time>
      </trkpt>
      <trkpt lat="43.02708" lon="-1.30288">
        <ele>1337.95</ele>
        <time>2025-10-17T10:58:35Z</time>
      </trkpt>
      <trkpt lat="43.02706" lon="-1.30304">
        <ele>1336.56</ele>
        <time>2025-10-17T10:58:48Z</time>
      </trkpt>
      <trkpt lat="43.02701" lon="-1.3032">
        <ele>1333.54</ele>
        <time>2025-10-17T10:59:05Z</time>
      </trkpt>
      <trkpt lat="43.02695" lon="-1.30339">
        <ele>1331.05</ele>
        <time>2025-10-17T10:59:26Z</time>
      </trkpt>
      <trkpt lat="43.0269" lon="-1.30362">
        <ele>1328.91</ele>
        <time>2025-10-17T10:59:50Z</time>
      </trkpt>
      <trkpt lat="43.02683" lon="-1.30387">
        <ele>1327.38</ele>
        <time>2025-10-17T11:00:12Z</time>
      </trkpt>
      <trkpt lat="43.02683" lon="-1.30388">
        <ele>1327.47</ele>
        <time>2025-10-17T11:00:13Z</time>
      </trkpt>
      <trkpt lat="43.02679" lon="-1.30403">
        <ele>1324.71</ele>
        <time>2025-10-17T11:00:30Z</time>
      </trkpt>
      <trkpt lat="43.0268" lon="-1.30423">
        <ele>1321.91</ele>
        <time>2025-10-17T11:00:50Z</time>
      </trkpt>
      <trkpt lat="43.02675" lon="-1.30439">
        <ele>1319.52</ele>
        <time>2025-10-17T11:01:09Z</time>
      </trkpt>
      <trkpt lat="43.02673" lon="-1.30444">
        <ele>1317.97</ele>
        <time>2025-10-17T11:01:14Z</time>
      </trkpt>
      <trkpt lat="43.02668" lon="-1.30463">
        <ele>1314.91</ele>
        <time>2025-10-17T11:01:34Z</time>
      </trkpt>
      <trkpt lat="43.02666" lon="-1.30469">
        <ele>1313.92</ele>
        <time>2025-10-17T11:01:41Z</time>
      </trkpt>
      <trkpt lat="43.02662" lon="-1.30483">
        <ele>1312.32</ele>
        <time>2025-10-17T11:01:55Z</time>
      </trkpt>
      <trkpt lat="43.02656" lon="-1.30504">
        <ele>1309.24</ele>
        <time>2025-10-17T11:02:17Z</time>
      </trkpt>
      <trkpt lat="43.02651" lon="-1.30522">
        <ele>1305.92</ele>
        <time>2025-10-17T11:02:36Z</time>
      </trkpt>
      <trkpt lat="43.02644" lon="-1.30545">
        <ele>1302.85</ele>
        <time>2025-10-17T11:02:59Z</time>
      </trkpt>
      <trkpt lat="43.02636" lon="-1.30566">
        <ele>1299.65</ele>
        <time>2025-10-17T11:03:21Z</time>
      </trkpt>
      <trkpt lat="43.02629" lon="-1.3058">
        <ele>1296.49</ele>
        <time>2025-10-17T11:03:35Z</time>
      </trkpt>
      <trkpt lat="43.02622" lon="-1.30601">
        <ele>1293.69</ele>
        <time>2025-10-17T11:03:56Z</time>
      </trkpt>
      <trkpt lat="43.02619" lon="-1.30626">
        <ele>1290.62</ele>
        <time>2025-10-17T11:04:19Z</time>
      </trkpt>
      <trkpt lat="43.02618" lon="-1.30638">
        <ele>1287.48</ele>
        <time>2025-10-17T11:04:32Z</time>
      </trkpt>
      <trkpt lat="43.02615" lon="-1.30653">
        <ele>1286.38</ele>
        <time>2025-10-17T11:04:52Z</time>
      </trkpt>
      <trkpt lat="43.02611" lon="-1.30665">
        <ele>1283.13</ele>
        <time>2025-10-17T11:05:05Z</time>
      </trkpt>
      <trkpt lat="43.02606" lon="-1.30678">
        <ele>1279.83</ele>
        <time>2025-10-17T11:05:21Z</time>
      </trkpt>
      <trkpt lat="43.02606" lon="-1.30679">
        <ele>1279.6</ele>
        <time>2025-10-17T11:05:22Z</time>
      </trkpt>
      <trkpt lat="43.02603" lon="-1.30683">
        <ele>1278.05</ele>
        <time>2025-10-17T11:05:27Z</time>
      </trkpt>
      <trkpt lat="43.02598" lon="-1.30697">
        <ele>1277.26</ele>
        <time>2025-10-17T11:05:41Z</time>
      </trkpt>
      <trkpt lat="43.02593" lon="-1.30717">
        <ele>1273.94</ele>
        <time>2025-10-17T11:06:01Z</time>
      </trkpt>
      <trkpt lat="43.02591" lon="-1.30735">
        <ele>1271.8</ele>
        <time>2025-10-17T11:06:20Z</time>
      </trkpt>
      <trkpt lat="43.02588" lon="-1.30752">
        <ele>1269.51</ele>
        <time>2025-10-17T11:06:37Z</time>
      </trkpt>
      <trkpt lat="43.02586" lon="-1.3077">
        <ele>1267.26</ele>
        <time>2025-10-17T11:06:54Z</time>
      </trkpt>
      <trkpt lat="43.02587" lon="-1.30775">
        <ele>1265.92</ele>
        <time>2025-10-17T11:06:59Z</time>
      </trkpt>
      <trkpt lat="43.02586" lon="-1.30789">
        <ele>1264.89</ele>
        <time>2025-10-17T11:07:16Z</time>
      </trkpt>
      <trkpt lat="43.02585" lon="-1.30794">
        <ele>1263.72</ele>
        <time>2025-10-17T11:07:21Z</time>
      </trkpt>
      <trkpt lat="43.02577" lon="-1.30811">
        <ele>1260.4</ele>
        <time>2025-10-17T11:07:40Z</time>
      </trkpt>
      <trkpt lat="43.02577" lon="-1.30812">
        <ele>1259.74</ele>
        <time>2025-10-17T11:07:42Z</time>
      </trkpt>
      <trkpt lat="43.02574" lon="-1.30827">
        <ele>1258.96</ele>
        <time>2025-10-17T11:07:56Z</time>
      </trkpt>
      <trkpt lat="43.02571" lon="-1.30833">
        <ele>1256.52</ele>
        <time>2025-10-17T11:08:04Z</time>
      </trkpt>
      <trkpt lat="43.02563" lon="-1.30845">
        <ele>1254.5</ele>
        <time>2025-10-17T11:08:19Z</time>
      </trkpt>
      <trkpt lat="43.02559" lon="-1.30853">
        <ele>1251.1</ele>
        <time>2025-10-17T11:08:29Z</time>
      </trkpt>
      <trkpt lat="43.02559" lon="-1.30853">
        <ele>1251.05</ele>
        <time>2025-10-17T11:08:30Z</time>
      </trkpt>
      <trkpt lat="43.0255" lon="-1.30863">
        <ele>1248.45</ele>
        <time>2025-10-17T11:08:46Z</time>
      </trkpt>
      <trkpt lat="43.02543" lon="-1.30873">
        <ele>1246.11</ele>
        <time>2025-10-17T11:09:00Z</time>
      </trkpt>
      <trkpt lat="43.02538" lon="-1.30882">
        <ele>1244.56</ele>
        <time>2025-10-17T11:09:17Z</time>
      </trkpt>
      <trkpt lat="43.02532" lon="-1.30896">
        <ele>1243.19</ele>
        <time>2025-10-17T11:09:36Z</time>
      </trkpt>
      <trkpt lat="43.02528" lon="-1.30906">
        <ele>1239.84</ele>
        <time>2025-10-17T11:09:50Z</time>
      </trkpt>
      <trkpt lat="43.02527" lon="-1.30907">
        <ele>1239.74</ele>
        <time>2025-10-17T11:09:51Z</time>
      </trkpt>
      <trkpt lat="43.02521" lon="-1.30923">
        <ele>1238.65</ele>
        <time>2025-10-17T11:10:08Z</time>
      </trkpt>
      <trkpt lat="43.02517" lon="-1.30932">
        <ele>1235.25</ele>
        <time>2025-10-17T11:10:19Z</time>
      </trkpt>
      <trkpt lat="43.02516" lon="-1.30932">
        <ele>1235.72</ele>
        <time>2025-10-17T11:10:20Z</time>
      </trkpt>
      <trkpt lat="43.02509" lon="-1.30949">
        <ele>1233.59</ele>
        <time>2025-10-17T11:10:42Z</time>
      </trkpt>
      <trkpt lat="43.02504" lon="-1.30966">
        <ele>1231.2</ele>
        <time>2025-10-17T11:10:59Z</time>
      </trkpt>
      <trkpt lat="43.02498" lon="-1.30985">
        <ele>1229.23</ele>
        <time>2025-10-17T11:11:17Z</time>
      </trkpt>
      <trkpt lat="43.02492" lon="-1.31006">
        <ele>1226.53</ele>
        <time>2025-10-17T11:11:35Z</time>
      </trkpt>
      <trkpt lat="43.02489" lon="-1.31023">
        <ele>1225.06</ele>
        <time>2025-10-17T11:11:53Z</time>
      </trkpt>
      <trkpt lat="43.02487" lon="-1.31046">
        <ele>1222.61</ele>
        <time>2025-10-17T11:12:16Z</time>
      </trkpt>
      <trkpt lat="43.02487" lon="-1.31061">
        <ele>1219.56</ele>
        <time>2025-10-17T11:12:33Z</time>
      </trkpt>
      <trkpt lat="43.02485" lon="-1.31077">
        <ele>1217.12</ele>
        <time>2025-10-17T11:12:51Z</time>
      </trkpt>
      <trkpt lat="43.02484" lon="-1.31096">
        <ele>1214.55</ele>
        <time>2025-10-17T11:13:12Z</time>
      </trkpt>
      <trkpt lat="43.02484" lon="-1.31112">
        <ele>1212.36</ele>
        <time>2025-10-17T11:13:30Z</time>
      </trkpt>
      <trkpt lat="43.02482" lon="-1.31133">
        <ele>1209.59</ele>
        <time>2025-10-17T11:13:52Z</time>
      </trkpt>
      <trkpt lat="43.02484" lon="-1.31148">
        <ele>1207.88</ele>
        <time>2025-10-17T11:14:08Z</time>
      </trkpt>
      <trkpt lat="43.02484" lon="-1.31175">
        <ele>1204.01</ele>
        <time>2025-10-17T11:14:32Z</time>
      </trkpt>
      <trkpt lat="43.02485" lon="-1.31196">
        <ele>1201.01</ele>
        <time>2025-10-17T11:14:55Z</time>
      </trkpt>
      <trkpt lat="43.02482" lon="-1.31222">
        <ele>1198.04</ele>
        <time>2025-10-17T11:15:20Z</time>
      </trkpt>
      <trkpt lat="43.02477" lon="-1.31242">
        <ele>1194.75</ele>
        <time>2025-10-17T11:15:41Z</time>
      </trkpt>
      <trkpt lat="43.02472" lon="-1.31258">
        <ele>1191.69</ele>
        <time>2025-10-17T11:16:01Z</time>
      </trkpt>
      <trkpt lat="43.02459" lon="-1.31281">
        <ele>1188.4</ele>
        <time>2025-10-17T11:16:24Z</time>
      </trkpt>
      <trkpt lat="43.02453" lon="-1.31296">
        <ele>1185.88</ele>
        <time>2025-10-17T11:16:43Z</time>
      </trkpt>
      <trkpt lat="43.0244" lon="-1.31321">
        <ele>1183.77</ele>
        <time>2025-10-17T11:17:08Z</time>
      </trkpt>
      <trkpt lat="43.02429" lon="-1.3134">
        <ele>1181.27</ele>
        <time>2025-10-17T11:17:30Z</time>
      </trkpt>
      <trkpt lat="43.02416" lon="-1.31355">
        <ele>1179.11</ele>
        <time>2025-10-17T11:17:53Z</time>
      </trkpt>
      <trkpt lat="43.02398" lon="-1.31367">
        <ele>1177.42</ele>
        <time>2025-10-17T11:18:15Z</time>
      </trkpt>
      <trkpt lat="43.02383" lon="-1.31371">
        <ele>1174.29</ele>
        <time>2025-10-17T11:18:33Z</time>
      </trkpt>
      <trkpt lat="43.02365" lon="-1.31373">
        <ele>1171.68</ele>
        <time>2025-10-17T11:18:55Z</time>
      </trkpt>
      <trkpt lat="43.0235" lon="-1.31391">
        <ele>1168.34</ele>
        <time>2025-10-17T11:19:19Z</time>
      </trkpt>
      <trkpt lat="43.02338" lon="-1.31411">
        <ele>1165.53</ele>
        <time>2025-10-17T11:19:41Z</time>
      </trkpt>
      <trkpt lat="43.02333" lon="-1.31425">
        <ele>1164.15</ele>
        <time>2025-10-17T11:19:53Z</time>
      </trkpt>
      <trkpt lat="43.02334" lon="-1.31431">
        <ele>1164.21</ele>
        <time>2025-10-17T11:19:57Z</time>
      </trkpt>
      <trkpt lat="43.02329" lon="-1.31447">
        <ele>1161.34</ele>
        <time>2025-10-17T11:20:14Z</time>
      </trkpt>
      <trkpt lat="43.02325" lon="-1.31457">
        <ele>1158.18</ele>
        <time>2025-10-17T11:20:29Z</time>
      </trkpt>
      <trkpt lat="43.02319" lon="-1.31474">
        <ele>1155.72</ele>
        <time>2025-10-17T11:20:50Z</time>
      </trkpt>
      <trkpt lat="43.02312" lon="-1.31494">
        <ele>1153.27</ele>
        <time>2025-10-17T11:21:13Z</time>
      </trkpt>
      <trkpt lat="43.02306" lon="-1.31511">
        <ele>1151.06</ele>
        <time>2025-10-17T11:21:31Z</time>
      </trkpt>
      <trkpt lat="43.02303" lon="-1.31535">
        <ele>1149.28</ele>
        <time>2025-10-17T11:21:51Z</time>
      </trkpt>
      <trkpt lat="43.02298" lon="-1.31561">
        <ele>1146.87</ele>
        <time>2025-10-17T11:22:11Z</time>
      </trkpt>
      <trkpt lat="43.02298" lon="-1.31566">
        <ele>1147.03</ele>
        <time>2025-10-17T11:22:15Z</time>
      </trkpt>
      <trkpt lat="43.02293" lon="-1.31584">
        <ele>1145.92</ele>
        <time>2025-10-17T11:22:32Z</time>
      </trkpt>
      <trkpt lat="43.02287" lon="-1.31611">
        <ele>1144.78</ele>
        <time>2025-10-17T11:22:53Z</time>
      </trkpt>
      <trkpt lat="43.02272" lon="-1.31624">
        <ele>1141.8</ele>
        <time>2025-10-17T11:23:14Z</time>
      </trkpt>
      <trkpt lat="43.02257" lon="-1.31639">
        <ele>1140.49</ele>
        <time>2025-10-17T11:23:35Z</time>
      </trkpt>
      <trkpt lat="43.02246" lon="-1.31654">
        <ele>1140.63</ele>
        <time>2025-10-17T11:23:54Z</time>
      </trkpt>
      <trkpt lat="43.02231" lon="-1.31659">
        <ele>1139.2</ele>
        <time>2025-10-17T11:24:15Z</time>
      </trkpt>
      <trkpt lat="43.02214" lon="-1.31666">
        <ele>1138.21</ele>
        <time>2025-10-17T11:24:36Z</time>
      </trkpt>
      <trkpt lat="43.02193" lon="-1.31673">
        <ele>1136.97</ele>
        <time>2025-10-17T11:24:58Z</time>
      </trkpt>
      <trkpt lat="43.0218" lon="-1.3168">
        <ele>1137.9</ele>
        <time>2025-10-17T11:25:21Z</time>
      </trkpt>
      <trkpt lat="43.02163" lon="-1.31693">
        <ele>1138.8</ele>
        <time>2025-10-17T11:25:40Z</time>
      </trkpt>
      <trkpt lat="43.02153" lon="-1.31702">
        <ele>1140.72</ele>
        <time>2025-10-17T11:25:57Z</time>
      </trkpt>
      <trkpt lat="43.02143" lon="-1.31714">
        <ele>1142.45</ele>
        <time>2025-10-17T11:26:14Z</time>
      </trkpt>
      <trkpt lat="43.02135" lon="-1.31723">
        <ele>1143.28</ele>
        <time>2025-10-17T11:26:25Z</time>
      </trkpt>
      <trkpt lat="43.02124" lon="-1.31734">
        <ele>1143.49</ele>
        <time>2025-10-17T11:26:39Z</time>
      </trkpt>
      <trkpt lat="43.02115" lon="-1.31741">
        <ele>1141.97</ele>
        <time>2025-10-17T11:26:51Z</time>
      </trkpt>
      <trkpt lat="43.02109" lon="-1.31748">
        <ele>1142.16</ele>
        <time>2025-10-17T11:27:09Z</time>
      </trkpt>
      <trkpt lat="43.02105" lon="-1.31758">
        <ele>1140.07</ele>
        <time>2025-10-17T11:27:25Z</time>
      </trkpt>
      <trkpt lat="43.02103" lon="-1.31768">
        <ele>1136.98</ele>
        <time>2025-10-17T11:27:40Z</time>
      </trkpt>
      <trkpt lat="43.02104" lon="-1.31781">
        <ele>1133.96</ele>
        <time>2025-10-17T11:27:56Z</time>
      </trkpt>
      <trkpt lat="43.02101" lon="-1.31791">
        <ele>1131.55</ele>
        <time>2025-10-17T11:28:16Z</time>
      </trkpt>
      <trkpt lat="43.02097" lon="-1.31799">
        <ele>1128.53</ele>
        <time>2025-10-17T11:28:33Z</time>
      </trkpt>
      <trkpt lat="43.02099" lon="-1.31811">
        <ele>1125.47</ele>
        <time>2025-10-17T11:28:51Z</time>
      </trkpt>
      <trkpt lat="43.02102" lon="-1.31822">
        <ele>1122.4</ele>
        <time>2025-10-17T11:29:10Z</time>
      </trkpt>
      <trkpt lat="43.02098" lon="-1.31832">
        <ele>1120.76</ele>
        <time>2025-10-17T11:29:20Z</time>
      </trkpt>
      <trkpt lat="43.02092" lon="-1.31844">
        <ele>1119.04</ele>
        <time>2025-10-17T11:29:36Z</time>
      </trkpt>
      <trkpt lat="43.02086" lon="-1.31853">
        <ele>1116.54</ele>
        <time>2025-10-17T11:29:54Z</time>
      </trkpt>
      <trkpt lat="43.02086" lon="-1.31862">
        <ele>1114.27</ele>
        <time>2025-10-17T11:30:12Z</time>
      </trkpt>
      <trkpt lat="43.02083" lon="-1.31872">
        <ele>1111.74</ele>
        <time>2025-10-17T11:30:28Z</time>
      </trkpt>
      <trkpt lat="43.02076" lon="-1.3188">
        <ele>1108.47</ele>
        <time>2025-10-17T11:30:47Z</time>
      </trkpt>
      <trkpt lat="43.02078" lon="-1.31892">
        <ele>1105.43</ele>
        <time>2025-10-17T11:31:09Z</time>
      </trkpt>
      <trkpt lat="43.02082" lon="-1.31905">
        <ele>1102.27</ele>
        <time>2025-10-17T11:31:29Z</time>
      </trkpt>
      <trkpt lat="43.02081" lon="-1.31919">
        <ele>1099.77</ele>
        <time>2025-10-17T11:31:47Z</time>
      </trkpt>
      <trkpt lat="43.0208" lon="-1.31922">
        <ele>1098.46</ele>
        <time>2025-10-17T11:31:50Z</time>
      </trkpt>
      <trkpt lat="43.02079" lon="-1.31939">
        <ele>1095.61</ele>
        <time>2025-10-17T11:32:11Z</time>
      </trkpt>
      <trkpt lat="43.02081" lon="-1.31962">
        <ele>1092.61</ele>
        <time>2025-10-17T11:32:31Z</time>
      </trkpt>
      <trkpt lat="43.02082" lon="-1.31973">
        <ele>1091.54</ele>
        <time>2025-10-17T11:32:42Z</time>
      </trkpt>
      <trkpt lat="43.0208" lon="-1.31986">
        <ele>1089.46</ele>
        <time>2025-10-17T11:32:58Z</time>
      </trkpt>
      <trkpt lat="43.02081" lon="-1.32006">
        <ele>1087.93</ele>
        <time>2025-10-17T11:33:15Z</time>
      </trkpt>
      <trkpt lat="43.0208" lon="-1.3203">
        <ele>1085.43</ele>
        <time>2025-10-17T11:33:37Z</time>
      </trkpt>
      <trkpt lat="43.02077" lon="-1.32053">
        <ele>1083.61</ele>
        <time>2025-10-17T11:33:55Z</time>
      </trkpt>
      <trkpt lat="43.02075" lon="-1.32057">
        <ele>1083.35</ele>
        <time>2025-10-17T11:33:59Z</time>
      </trkpt>
      <trkpt lat="43.0207" lon="-1.3207">
        <ele>1082.3</ele>
        <time>2025-10-17T11:34:11Z</time>
      </trkpt>
      <trkpt lat="43.02065" lon="-1.32081">
        <ele>1081.48</ele>
        <time>2025-10-17T11:34:20Z</time>
      </trkpt>
      <trkpt lat="43.02061" lon="-1.32098">
        <ele>1079.94</ele>
        <time>2025-10-17T11:34:36Z</time>
      </trkpt>
      <trkpt lat="43.02054" lon="-1.32115">
        <ele>1078.65</ele>
        <time>2025-10-17T11:34:52Z</time>
      </trkpt>
      <trkpt lat="43.0205" lon="-1.32126">
        <ele>1076.36</ele>
        <time>2025-10-17T11:35:06Z</time>
      </trkpt>
      <trkpt lat="43.02043" lon="-1.32142">
        <ele>1074.27</ele>
        <time>2025-10-17T11:35:26Z</time>
      </trkpt>
      <trkpt lat="43.02044" lon="-1.32148">
        <ele>1073.36</ele>
        <time>2025-10-17T11:35:43Z</time>
      </trkpt>
      <trkpt lat="43.02043" lon="-1.3217">
        <ele>1070.97</ele>
        <time>2025-10-17T11:36:01Z</time>
      </trkpt>
      <trkpt lat="43.02043" lon="-1.32187">
        <ele>1068.91</ele>
        <time>2025-10-17T11:36:17Z</time>
      </trkpt>
      <trkpt lat="43.02044" lon="-1.32188">
        <ele>1068.67</ele>
        <time>2025-10-17T11:36:18Z</time>
      </trkpt>
      <trkpt lat="43.02043" lon="-1.32207">
        <ele>1067.08</ele>
        <time>2025-10-17T11:36:33Z</time>
      </trkpt>
      <trkpt lat="43.0204" lon="-1.32224">
        <ele>1065.91</ele>
        <time>2025-10-17T11:36:47Z</time>
      </trkpt>
      <trkpt lat="43.0204" lon="-1.32232">
        <ele>1065.42</ele>
        <time>2025-10-17T11:36:54Z</time>
      </trkpt>
      <trkpt lat="43.02038" lon="-1.32249">
        <ele>1064.92</ele>
        <time>2025-10-17T11:37:06Z</time>
      </trkpt>
      <trkpt lat="43.02037" lon="-1.32255">
        <ele>1064.46</ele>
        <time>2025-10-17T11:37:16Z</time>
      </trkpt>
      <trkpt lat="43.02036" lon="-1.3226">
        <ele>1063.47</ele>
        <time>2025-10-17T11:37:20Z</time>
      </trkpt>
      <trkpt lat="43.02032" lon="-1.32277">
        <ele>1063.22</ele>
        <time>2025-10-17T11:37:34Z</time>
      </trkpt>
      <trkpt lat="43.02029" lon="-1.3229">
        <ele>1063.27</ele>
        <time>2025-10-17T11:37:48Z</time>
      </trkpt>
      <trkpt lat="43.02029" lon="-1.32293">
        <ele>1063.17</ele>
        <time>2025-10-17T11:37:50Z</time>
      </trkpt>
      <trkpt lat="43.02025" lon="-1.32312">
        <ele>1062.41</ele>
        <time>2025-10-17T11:38:07Z</time>
      </trkpt>
      <trkpt lat="43.02021" lon="-1.32336">
        <ele>1059.83</ele>
        <time>2025-10-17T11:38:29Z</time>
      </trkpt>
      <trkpt lat="43.02022" lon="-1.32364">
        <ele>1058.23</ele>
        <time>2025-10-17T11:38:49Z</time>
      </trkpt>
      <trkpt lat="43.02019" lon="-1.32384">
        <ele>1057.71</ele>
        <time>2025-10-17T11:39:13Z</time>
      </trkpt>
      <trkpt lat="43.0202" lon="-1.32386">
        <ele>1058.81</ele>
        <time>2025-10-17T11:39:37Z</time>
      </trkpt>
      <trkpt lat="43.02011" lon="-1.32393">
        <ele>1057.4</ele>
        <time>2025-10-17T11:40:02Z</time>
      </trkpt>
      <trkpt lat="43.02005" lon="-1.32389">
        <ele>1056.71</ele>
        <time>2025-10-17T11:40:22Z</time>
      </trkpt>
      <trkpt lat="43.01991" lon="-1.32376">
        <ele>1055.48</ele>
        <time>2025-10-17T11:40:41Z</time>
      </trkpt>
      <trkpt lat="43.01985" lon="-1.32374">
        <ele>1055.17</ele>
        <time>2025-10-17T11:40:47Z</time>
      </trkpt>
      <trkpt lat="43.01982" lon="-1.32373">
        <ele>1055.23</ele>
        <time>2025-10-17T11:40:50Z</time>
      </trkpt>
      <trkpt lat="43.0197" lon="-1.32368">
        <ele>1054.27</ele>
        <time>2025-10-17T11:41:03Z</time>
      </trkpt>
      <trkpt lat="43.01952" lon="-1.32356">
        <ele>1053.61</ele>
        <time>2025-10-17T11:41:24Z</time>
      </trkpt>
      <trkpt lat="43.01946" lon="-1.32352">
        <ele>1050.45</ele>
        <time>2025-10-17T11:41:32Z</time>
      </trkpt>
      <trkpt lat="43.01938" lon="-1.32346">
        <ele>1050.81</ele>
        <time>2025-10-17T11:41:47Z</time>
      </trkpt>
      <trkpt lat="43.01926" lon="-1.32337">
        <ele>1050.78</ele>
        <time>2025-10-17T11:42:01Z</time>
      </trkpt>
      <trkpt lat="43.01916" lon="-1.32325">
        <ele>1047.71</ele>
        <time>2025-10-17T11:42:19Z</time>
      </trkpt>
      <trkpt lat="43.01909" lon="-1.32311">
        <ele>1044.65</ele>
        <time>2025-10-17T11:42:38Z</time>
      </trkpt>
      <trkpt lat="43.01902" lon="-1.323">
        <ele>1041.99</ele>
        <time>2025-10-17T11:42:59Z</time>
      </trkpt>
      <trkpt lat="43.01889" lon="-1.32285">
        <ele>1039.82</ele>
        <time>2025-10-17T11:43:20Z</time>
      </trkpt>
      <trkpt lat="43.0187" lon="-1.32276">
        <ele>1037.98</ele>
        <time>2025-10-17T11:43:44Z</time>
      </trkpt>
      <trkpt lat="43.01855" lon="-1.32261">
        <ele>1035.91</ele>
        <time>2025-10-17T11:44:08Z</time>
      </trkpt>
      <trkpt lat="43.01837" lon="-1.32244">
        <ele>1033.67</ele>
        <time>2025-10-17T11:44:29Z</time>
      </trkpt>
      <trkpt lat="43.01819" lon="-1.32235">
        <ele>1031.28</ele>
        <time>2025-10-17T11:44:50Z</time>
      </trkpt>
      <trkpt lat="43.01803" lon="-1.32226">
        <ele>1028.63</ele>
        <time>2025-10-17T11:45:13Z</time>
      </trkpt>
      <trkpt lat="43.01791" lon="-1.32214">
        <ele>1026.71</ele>
        <time>2025-10-17T11:45:33Z</time>
      </trkpt>
      <trkpt lat="43.01778" lon="-1.32199">
        <ele>1024.02</ele>
        <time>2025-10-17T11:45:52Z</time>
      </trkpt>
      <trkpt lat="43.01767" lon="-1.32183">
        <ele>1021.28</ele>
        <time>2025-10-17T11:46:15Z</time>
      </trkpt>
      <trkpt lat="43.01762" lon="-1.32173">
        <ele>1019.24</ele>
        <time>2025-10-17T11:46:31Z</time>
      </trkpt>
      <trkpt lat="43.01759" lon="-1.32161">
        <ele>1016.01</ele>
        <time>2025-10-17T11:46:55Z</time>
      </trkpt>
      <trkpt lat="43.0175" lon="-1.32151">
        <ele>1013.55</ele>
        <time>2025-10-17T11:47:20Z</time>
      </trkpt>
      <trkpt lat="43.01735" lon="-1.32141">
        <ele>1011.08</ele>
        <time>2025-10-17T11:47:42Z</time>
      </trkpt>
      <trkpt lat="43.01727" lon="-1.32127">
        <ele>1008.35</ele>
        <time>2025-10-17T11:48:01Z</time>
      </trkpt>
      <trkpt lat="43.01717" lon="-1.32106">
        <ele>1006.58</ele>
        <time>2025-10-17T11:48:22Z</time>
      </trkpt>
      <trkpt lat="43.01711" lon="-1.32091">
        <ele>1004.57</ele>
        <time>2025-10-17T11:48:41Z</time>
      </trkpt>
      <trkpt lat="43.01713" lon="-1.32073">
        <ele>1001.98</ele>
        <time>2025-10-17T11:49:05Z</time>
      </trkpt>
      <trkpt lat="43.01711" lon="-1.32054">
        <ele>999.49</ele>
        <time>2025-10-17T11:49:26Z</time>
      </trkpt>
      <trkpt lat="43.01704" lon="-1.32041">
        <ele>997.97</ele>
        <time>2025-10-17T11:49:46Z</time>
      </trkpt>
      <trkpt lat="43.01684" lon="-1.32031">
        <ele>996.28</ele>
        <time>2025-10-17T11:50:07Z</time>
      </trkpt>
      <trkpt lat="43.01667" lon="-1.3202">
        <ele>995.52</ele>
        <time>2025-10-17T11:50:26Z</time>
      </trkpt>
      <trkpt lat="43.0165" lon="-1.32005">
        <ele>993.63</ele>
        <time>2025-10-17T11:50:48Z</time>
      </trkpt>
      <trkpt lat="43.01637" lon="-1.31989">
        <ele>991.83</ele>
        <time>2025-10-17T11:51:08Z</time>
      </trkpt>
      <trkpt lat="43.01624" lon="-1.31975">
        <ele>989.8</ele>
        <time>2025-10-17T11:51:28Z</time>
      </trkpt>
      <trkpt lat="43.01612" lon="-1.31956">
        <ele>987.13</ele>
        <time>2025-10-17T11:51:49Z</time>
      </trkpt>
      <trkpt lat="43.01601" lon="-1.31936">
        <ele>984.49</ele>
        <time>2025-10-17T11:52:12Z</time>
      </trkpt>
      <trkpt lat="43.01593" lon="-1.31914">
        <ele>981.42</ele>
        <time>2025-10-17T11:52:33Z</time>
      </trkpt>
      <trkpt lat="43.01587" lon="-1.31895">
        <ele>978.36</ele>
        <time>2025-10-17T11:52:54Z</time>
      </trkpt>
      <trkpt lat="43.01583" lon="-1.31871">
        <ele>975.28</ele>
        <time>2025-10-17T11:53:18Z</time>
      </trkpt>
      <trkpt lat="43.01576" lon="-1.31858">
        <ele>973.18</ele>
        <time>2025-10-17T11:53:39Z</time>
      </trkpt>
      <trkpt lat="43.01561" lon="-1.31843">
        <ele>970.58</ele>
        <time>2025-10-17T11:54:02Z</time>
      </trkpt>
      <trkpt lat="43.0155" lon="-1.31834">
        <ele>967.52</ele>
        <time>2025-10-17T11:54:18Z</time>
      </trkpt>
      <trkpt lat="43.01542" lon="-1.3182">
        <ele>965.44</ele>
        <time>2025-10-17T11:54:35Z</time>
      </trkpt>
      <trkpt lat="43.01527" lon="-1.31802">
        <ele>963.5</ele>
        <time>2025-10-17T11:54:56Z</time>
      </trkpt>
      <trkpt lat="43.0151" lon="-1.31788">
        <ele>961.48</ele>
        <time>2025-10-17T11:55:17Z</time>
      </trkpt>
      <trkpt lat="43.01496" lon="-1.31781">
        <ele>958.34</ele>
        <time>2025-10-17T11:55:37Z</time>
      </trkpt>
      <trkpt lat="43.01482" lon="-1.31765">
        <ele>955.64</ele>
        <time>2025-10-17T11:56:01Z</time>
      </trkpt>
      <trkpt lat="43.01465" lon="-1.31754">
        <ele>952.39</ele>
        <time>2025-10-17T11:56:25Z</time>
      </trkpt>
      <trkpt lat="43.01444" lon="-1.3175">
        <ele>950.03</ele>
        <time>2025-10-17T11:56:47Z</time>
      </trkpt>
      <trkpt lat="43.0143" lon="-1.31746">
        <ele>946.91</ele>
        <time>2025-10-17T11:57:04Z</time>
      </trkpt>
      <trkpt lat="43.01424" lon="-1.31748">
        <ele>947.43</ele>
        <time>2025-10-17T11:57:10Z</time>
      </trkpt>
      <trkpt lat="43.01407" lon="-1.31758">
        <ele>946.29</ele>
        <time>2025-10-17T11:57:32Z</time>
      </trkpt>
      <trkpt lat="43.01403" lon="-1.31762">
        <ele>945.37</ele>
        <time>2025-10-17T11:57:37Z</time>
      </trkpt>
      <trkpt lat="43.01388" lon="-1.31777">
        <ele>944.8</ele>
        <time>2025-10-17T11:57:53Z</time>
      </trkpt>
      <trkpt lat="43.01371" lon="-1.31789">
        <ele>944.29</ele>
        <time>2025-10-17T11:58:12Z</time>
      </trkpt>
      <trkpt lat="43.01355" lon="-1.31805">
        <ele>944.04</ele>
        <time>2025-10-17T11:58:35Z</time>
      </trkpt>
      <trkpt lat="43.01342" lon="-1.31818">
        <ele>943.26</ele>
        <time>2025-10-17T11:58:54Z</time>
      </trkpt>
      <trkpt lat="43.01338" lon="-1.31823">
        <ele>943.12</ele>
        <time>2025-10-17T11:58:58Z</time>
      </trkpt>
      <trkpt lat="43.01327" lon="-1.31834">
        <ele>942.83</ele>
        <time>2025-10-17T11:59:11Z</time>
      </trkpt>
      <trkpt lat="43.01314" lon="-1.3184">
        <ele>942.4</ele>
        <time>2025-10-17T11:59:24Z</time>
      </trkpt>
      <trkpt lat="43.0131" lon="-1.31842">
        <ele>942.22</ele>
        <time>2025-10-17T11:59:28Z</time>
      </trkpt>
      <trkpt lat="43.01297" lon="-1.31847">
        <ele>942.27</ele>
        <time>2025-10-17T11:59:41Z</time>
      </trkpt>
      <trkpt lat="43.01276" lon="-1.31855">
        <ele>941.33</ele>
        <time>2025-10-17T12:00:04Z</time>
      </trkpt>
      <trkpt lat="43.01251" lon="-1.31853">
        <ele>941.62</ele>
        <time>2025-10-17T12:00:27Z</time>
      </trkpt>
      <trkpt lat="43.01229" lon="-1.31855">
        <ele>941.56</ele>
        <time>2025-10-17T12:00:51Z</time>
      </trkpt>
      <trkpt lat="43.01207" lon="-1.31864">
        <ele>941.6</ele>
        <time>2025-10-17T12:01:11Z</time>
      </trkpt>
      <trkpt lat="43.01194" lon="-1.31869">
        <ele>941.84</ele>
        <time>2025-10-17T12:01:24Z</time>
      </trkpt>
      <trkpt lat="43.01182" lon="-1.31879">
        <ele>941.38</ele>
        <time>2025-10-17T12:01:41Z</time>
      </trkpt>
      <trkpt lat="43.01159" lon="-1.31886">
        <ele>941.74</ele>
        <time>2025-10-17T12:02:02Z</time>
      </trkpt>
      <trkpt lat="43.0115" lon="-1.31891">
        <ele>941.17</ele>
        <time>2025-10-17T12:02:11Z</time>
      </trkpt>
      <trkpt lat="43.01129" lon="-1.319">
        <ele>940.75</ele>
        <time>2025-10-17T12:02:33Z</time>
      </trkpt>
      <trkpt lat="43.01121" lon="-1.31898">
        <ele>941.58</ele>
        <time>2025-10-17T12:02:51Z</time>
      </trkpt>
      <trkpt lat="43.01121" lon="-1.31897">
        <ele>939.22</ele>
        <time>2025-10-17T12:02:53Z</time>
      </trkpt>
      <trkpt lat="43.01108" lon="-1.31901">
        <ele>939.95</ele>
        <time>2025-10-17T12:03:15Z</time>
      </trkpt>
      <trkpt lat="43.01091" lon="-1.31905">
        <ele>939.99</ele>
        <time>2025-10-17T12:03:35Z</time>
      </trkpt>
      <trkpt lat="43.01081" lon="-1.31905">
        <ele>940.4</ele>
        <time>2025-10-17T12:03:46Z</time>
      </trkpt>
      <trkpt lat="43.01065" lon="-1.31895">
        <ele>940.47</ele>
        <time>2025-10-17T12:04:06Z</time>
      </trkpt>
      <trkpt lat="43.01051" lon="-1.31877">
        <ele>938.54</ele>
        <time>2025-10-17T12:04:25Z</time>
      </trkpt>
      <trkpt lat="43.01043" lon="-1.31872">
        <ele>937.87</ele>
        <time>2025-10-17T12:04:33Z</time>
      </trkpt>
      <trkpt lat="43.01028" lon="-1.31872">
        <ele>938.9</ele>
        <time>2025-10-17T12:04:51Z</time>
      </trkpt>
      <trkpt lat="43.0101" lon="-1.31882">
        <ele>936.59</ele>
        <time>2025-10-17T12:05:15Z</time>
      </trkpt>
      <trkpt lat="43.00994" lon="-1.31898">
        <ele>935.49</ele>
        <time>2025-10-17T12:05:39Z</time>
      </trkpt>
      <trkpt lat="43.00975" lon="-1.31908">
        <ele>934.4</ele>
        <time>2025-10-17T12:06:01Z</time>
      </trkpt>
      <trkpt lat="43.00959" lon="-1.3191">
        <ele>934.41</ele>
        <time>2025-10-17T12:06:20Z</time>
      </trkpt>
      <trkpt lat="43.00945" lon="-1.319">
        <ele>932.22</ele>
        <time>2025-10-17T12:06:39Z</time>
      </trkpt>
      <trkpt lat="43.00934" lon="-1.3188">
        <ele>931.54</ele>
        <time>2025-10-17T12:06:58Z</time>
      </trkpt>
      <trkpt lat="43.00926" lon="-1.31858">
        <ele>930.21</ele>
        <time>2025-10-17T12:07:16Z</time>
      </trkpt>
      <trkpt lat="43.00926" lon="-1.31853">
        <ele>929.63</ele>
        <time>2025-10-17T12:07:38Z</time>
      </trkpt>
      <trkpt lat="43.00925" lon="-1.31853">
        <ele>929.76</ele>
        <time>2025-10-17T12:08:16Z</time>
      </trkpt>
    </trkseg>
  </trk>
</gpx>